Time,TemperatureF,DewpointF,PressureIn,WindDirection,WindDirectionDegrees,WindSpeedMPH,WindSpeedGustMPH,Humidity,HourlyPrecipIn,Conditions,Clouds,dailyrainin,SoftwareType,DateUTC
2013-02-24 00:00:00,40.8,39.2,26.99,SSE,158,0.0,0.0,94,0.00,,---,0.00,VWS V14.01,2013-02-24 05:00:00,
2013-02-24 00:02:00,40.6,39.0,26.99,SSE,158,0.0,0.0,94,0.00,,---,0.00,VWS V14.01,2013-02-24 05:02:00,
2013-02-24 00:04:00,40.5,38.6,26.99,ESE,112,2.0,2.7,93,0.00,,---,0.00,VWS V14.01,2013-02-24 05:04:00,
2013-02-24 00:05:00,40.5,38.6,26.99,ESE,112,0.0,2.0,93,0.00,,---,0.00,VWS V14.01,2013-02-24 05:05:00,
2013-02-24 00:06:00,40.5,38.6,26.99,ESE,112,0.0,2.0,93,0.00,,---,0.00,VWS V14.01,2013-02-24 05:06:00,
2013-02-24 00:08:00,40.3,38.2,26.99,East,90,1.3,1.3,92,0.00,,---,0.00,VWS V14.01,2013-02-24 05:08:00,
2013-02-24 00:10:00,39.9,37.5,26.99,NNE,22,0.0,0.0,91,0.00,,---,0.00,VWS V14.01,2013-02-24 05:10:00,
2013-02-24 00:12:00,39.7,37.3,26.99,NNW,338,2.5,2.5,91,0.00,,---,0.00,VWS V14.01,2013-02-24 05:12:00,
2013-02-24 00:14:00,39.7,37.3,26.99,NNW,338,1.6,2.5,91,0.00,,---,0.00,VWS V14.01,2013-02-24 05:14:00,
2013-02-24 00:15:00,39.4,36.7,26.99,West,270,0.0,1.6,90,0.00,,---,0.00,VWS V14.01,2013-02-24 05:15:00,
2013-02-24 00:16:00,39.2,36.2,26.99,West,270,1.3,1.6,89,0.00,,---,0.00,VWS V14.01,2013-02-24 05:16:00,
2013-02-24 00:18:00,39.2,36.2,26.99,West,270,0.0,1.3,89,0.00,,---,0.00,VWS V14.01,2013-02-24 05:18:00,
2013-02-24 00:20:00,39.0,36.1,26.99,SE,135,1.3,1.3,89,0.00,,---,0.00,VWS V14.01,2013-02-24 05:20:00,
2013-02-24 00:22:00,39.0,36.3,26.99,WSW,248,1.6,1.6,90,0.00,,---,0.00,VWS V14.01,2013-02-24 05:22:00,
2013-02-24 00:24:00,39.0,36.3,26.99,WNW,292,1.6,2.2,90,0.00,,---,0.00,VWS V14.01,2013-02-24 05:24:00,
2013-02-24 00:25:00,38.8,36.2,26.99,West,270,2.2,2.5,90,0.00,,---,0.00,VWS V14.01,2013-02-24 05:25:00,
2013-02-24 00:26:00,38.8,36.2,26.99,West,270,1.6,2.5,90,0.00,,---,0.00,VWS V14.01,2013-02-24 05:26:00,
2013-02-24 00:28:00,38.8,36.4,26.99,NNE,22,2.0,2.5,91,0.00,,---,0.00,VWS V14.01,2013-02-24 05:28:00,
2013-02-24 00:30:00,38.8,36.4,26.99,WNW,292,2.5,2.5,91,0.00,,---,0.00,VWS V14.01,2013-02-24 05:30:00,
2013-02-24 00:32:00,38.8,36.7,26.99,West,270,2.2,3.1,92,0.00,,---,0.00,VWS V14.01,2013-02-24 05:32:00,
2013-02-24 00:34:00,39.0,36.9,27.02,WSW,248,1.1,2.7,92,0.00,,---,0.00,VWS V14.01,2013-02-24 05:34:00,
2013-02-24 00:35:00,38.8,37.0,27.02,East,90,0.0,1.1,93,0.00,,---,0.00,VWS V14.01,2013-02-24 05:35:00,
2013-02-24 00:36:00,38.8,37.0,27.02,East,90,0.0,1.1,93,0.00,,---,0.00,VWS V14.01,2013-02-24 05:36:00,
2013-02-24 00:38:00,38.8,37.0,27.02,WNW,292,2.2,2.2,93,0.00,,---,0.00,VWS V14.01,2013-02-24 05:38:00,
2013-02-24 00:40:00,38.7,36.8,27.02,WNW,292,1.6,1.6,93,0.00,,---,0.00,VWS V14.01,2013-02-24 05:40:00,
2013-02-24 00:42:00,38.7,36.8,27.02,ESE,112,1.3,1.6,93,0.00,,---,0.00,VWS V14.01,2013-02-24 05:42:00,
2013-02-24 00:44:00,38.7,36.8,27.02,East,90,2.2,2.7,93,0.00,,---,0.00,VWS V14.01,2013-02-24 05:44:00,
2013-02-24 00:45:00,38.5,36.6,27.02,NE,45,2.0,2.5,93,0.00,,---,0.00,VWS V14.01,2013-02-24 05:45:00,
2013-02-24 00:46:00,37.0,35.7,27.02,WSW,248,2.2,2.5,95,0.00,,---,0.00,VWS V14.01,2013-02-24 05:46:00,
2013-02-24 00:48:00,38.3,36.5,26.99,NE,45,2.7,2.7,93,0.00,,---,0.00,VWS V14.01,2013-02-24 05:48:00,
2013-02-24 00:50:00,38.1,36.0,26.99,NNE,22,2.0,2.0,92,0.00,,---,0.00,VWS V14.01,2013-02-24 05:50:00,
2013-02-24 00:52:00,38.1,36.0,26.99,NE,45,2.5,2.5,92,0.00,,---,0.00,VWS V14.01,2013-02-24 05:52:00,
2013-02-24 00:54:00,38.1,36.0,26.99,ENE,68,0.9,2.5,92,0.00,,---,0.00,VWS V14.01,2013-02-24 05:54:00,
2013-02-24 00:55:00,37.9,35.5,26.99,ENE,68,0.0,0.9,91,0.00,,---,0.00,VWS V14.01,2013-02-24 05:55:00,
2013-02-24 00:56:00,37.9,35.5,26.99,ENE,68,0.0,0.9,91,0.00,,---,0.00,VWS V14.01,2013-02-24 05:56:00,
2013-02-24 00:58:00,38.1,36.0,26.99,WSW,248,1.3,2.0,92,0.00,,---,0.00,VWS V14.01,2013-02-24 05:58:00,
2013-02-24 01:00:00,38.1,36.0,26.99,WSW,248,0.0,0.0,92,0.00,,---,0.00,VWS V14.01,2013-02-24 06:00:00,
2013-02-24 01:02:00,38.1,36.3,26.99,WSW,248,2.9,2.9,93,0.00,,---,0.00,VWS V14.01,2013-02-24 06:02:00,
2013-02-24 01:04:00,38.1,36.5,26.99,WSW,248,2.7,3.1,94,0.00,,---,0.00,VWS V14.01,2013-02-24 06:04:00,
2013-02-24 01:05:00,38.1,36.5,26.99,WSW,248,2.7,2.7,94,0.00,,---,0.00,VWS V14.01,2013-02-24 06:05:00,
2013-02-24 01:06:00,38.1,36.5,26.99,WSW,248,2.7,2.7,94,0.00,,---,0.00,VWS V14.01,2013-02-24 06:06:00,
2013-02-24 01:08:00,37.9,36.6,26.99,SW,225,2.0,2.7,95,0.00,,---,0.00,VWS V14.01,2013-02-24 06:08:00,
2013-02-24 01:10:00,37.9,36.6,26.99,SW,225,0.0,0.0,95,0.00,,---,0.00,VWS V14.01,2013-02-24 06:10:00,
2013-02-24 01:12:00,37.9,36.6,26.99,WNW,292,0.0,0.0,95,0.00,,---,0.00,VWS V14.01,2013-02-24 06:12:00,
2013-02-24 01:14:00,37.8,36.5,26.99,WNW,292,1.6,2.2,95,0.00,,---,0.00,VWS V14.01,2013-02-24 06:14:00,
2013-02-24 01:15:00,37.6,36.3,26.99,WNW,292,0.0,1.6,95,0.00,,---,0.00,VWS V14.01,2013-02-24 06:15:00,
2013-02-24 01:16:00,37.6,36.3,26.99,WNW,292,0.0,1.6,95,0.00,,---,0.00,VWS V14.01,2013-02-24 06:16:00,
2013-02-24 01:18:00,37.6,36.3,27.02,SE,135,0.0,0.0,95,0.00,,---,0.00,VWS V14.01,2013-02-24 06:18:00,
2013-02-24 01:20:00,37.4,35.8,27.02,NNW,338,0.0,1.1,94,0.00,,---,0.00,VWS V14.01,2013-02-24 06:20:00,
2013-02-24 01:22:00,37.4,35.8,27.02,NNW,338,0.0,1.1,94,0.00,,---,0.00,VWS V14.01,2013-02-24 06:22:00,
2013-02-24 01:24:00,37.2,35.9,27.02,SE,135,1.6,2.0,95,0.00,,---,0.00,VWS V14.01,2013-02-24 06:24:00,
2013-02-24 01:25:00,37.0,35.5,27.02,SSW,202,1.1,1.6,94,0.00,,---,0.00,VWS V14.01,2013-02-24 06:25:00,
2013-02-24 01:26:00,37.0,35.5,27.02,NNW,338,2.5,2.5,94,0.00,,---,0.00,VWS V14.01,2013-02-24 06:26:00,
2013-02-24 01:28:00,36.9,35.3,27.02,NNW,338,2.2,2.7,94,0.00,,---,0.00,VWS V14.01,2013-02-24 06:28:00,
2013-02-24 01:30:00,36.7,35.1,27.02,East,90,1.6,1.6,94,0.00,,---,0.00,VWS V14.01,2013-02-24 06:30:00,
2013-02-24 01:32:00,36.7,34.8,27.02,East,90,0.9,2.5,93,0.00,,---,0.00,VWS V14.01,2013-02-24 06:32:00,
2013-02-24 01:34:00,36.7,34.8,27.02,SW,225,0.0,0.9,93,0.00,,---,0.00,VWS V14.01,2013-02-24 06:34:00,
2013-02-24 01:35:00,36.7,34.8,27.02,SW,225,0.0,0.0,93,0.00,,---,0.00,VWS V14.01,2013-02-24 06:35:00,
2013-02-24 01:36:00,36.7,34.8,27.02,SW,225,0.0,0.0,93,0.00,,---,0.00,VWS V14.01,2013-02-24 06:36:00,
2013-02-24 01:38:00,36.7,34.8,27.02,WSW,248,2.0,2.0,93,0.00,,---,0.00,VWS V14.01,2013-02-24 06:38:00,
2013-02-24 01:40:00,36.9,35.3,27.02,West,270,1.3,2.5,94,0.00,,---,0.00,VWS V14.01,2013-02-24 06:40:00,
2013-02-24 01:42:00,36.9,35.3,27.02,West,270,1.3,2.5,94,0.00,,---,0.00,VWS V14.01,2013-02-24 06:42:00,
2013-02-24 01:44:00,36.9,35.6,27.02,WNW,292,0.0,1.3,95,0.00,,---,0.00,VWS V14.01,2013-02-24 06:44:00,
2013-02-24 01:45:00,37.0,35.7,27.02,WSW,248,2.0,2.5,95,0.00,,---,0.00,VWS V14.01,2013-02-24 06:45:00,
2013-02-24 01:46:00,37.0,35.7,27.02,WSW,248,2.2,2.5,95,0.00,,---,0.00,VWS V14.01,2013-02-24 06:46:00,
2013-02-24 01:48:00,37.2,36.2,27.05,WSW,248,2.5,2.7,96,0.00,,---,0.00,VWS V14.01,2013-02-24 06:48:00,
2013-02-24 01:50:00,37.4,36.6,27.05,SSW,202,2.0,2.2,97,0.00,,---,0.00,VWS V14.01,2013-02-24 06:50:00,
2013-02-24 01:52:00,37.4,36.6,27.05,SSE,158,0.9,2.2,97,0.00,,---,0.00,VWS V14.01,2013-02-24 06:52:00,
2013-02-24 01:54:00,37.6,36.8,27.05,SW,225,1.6,1.6,97,0.00,,---,0.00,VWS V14.01,2013-02-24 06:54:00,
2013-02-24 01:55:00,37.4,36.6,27.05,SW,225,0.0,1.6,97,0.00,,---,0.00,VWS V14.01,2013-02-24 06:55:00,
2013-02-24 01:56:00,37.4,36.6,27.05,SW,225,0.0,1.6,97,0.00,,---,0.00,VWS V14.01,2013-02-24 06:56:00,
2013-02-24 01:58:00,37.4,36.9,27.05,SW,225,0.0,0.0,98,0.00,,---,0.00,VWS V14.01,2013-02-24 06:58:00,
2013-02-24 02:00:00,37.4,36.9,27.05,ENE,68,0.0,0.9,98,0.00,,---,0.00,VWS V14.01,2013-02-24 07:00:00,
2013-02-24 02:02:00,37.4,36.9,27.05,ENE,68,0.0,0.9,98,0.00,,---,0.00,VWS V14.01,2013-02-24 07:02:00,
2013-02-24 02:04:00,37.4,36.9,27.02,ENE,68,0.0,0.0,98,0.00,,---,0.00,VWS V14.01,2013-02-24 07:04:00,
2013-02-24 02:05:00,37.4,36.9,27.02,North,0,1.6,1.6,98,0.00,,---,0.00,VWS V14.01,2013-02-24 07:05:00,
2013-02-24 02:06:00,37.4,36.9,27.02,North,0,1.6,1.6,98,0.00,,---,0.00,VWS V14.01,2013-02-24 07:06:00,
2013-02-24 02:08:00,37.6,37.1,27.02,North,0,0.0,1.6,98,0.00,,---,0.00,VWS V14.01,2013-02-24 07:08:00,
2013-02-24 02:10:00,37.6,37.1,27.02,North,0,0.0,0.0,98,0.00,,---,0.00,VWS V14.01,2013-02-24 07:10:00,
2013-02-24 02:12:00,37.9,37.4,27.02,SSE,158,0.0,2.2,98,0.00,,---,0.00,VWS V14.01,2013-02-24 07:12:00,
2013-02-24 02:14:00,37.9,37.4,27.02,WSW,248,0.0,0.0,98,0.00,,---,0.00,VWS V14.01,2013-02-24 07:14:00,
2013-02-24 02:15:00,37.9,37.4,27.02,West,270,1.3,2.0,98,0.00,,---,0.00,VWS V14.01,2013-02-24 07:15:00,
2013-02-24 02:16:00,37.9,37.4,27.02,West,270,1.1,2.0,98,0.00,,---,0.00,VWS V14.01,2013-02-24 07:16:00,
2013-02-24 02:18:00,37.9,37.4,27.02,West,270,2.0,2.0,98,0.00,,---,0.00,VWS V14.01,2013-02-24 07:18:00,
2013-02-24 02:20:00,37.9,37.4,27.02,West,270,0.0,1.3,98,0.00,,---,0.00,VWS V14.01,2013-02-24 07:20:00,
2013-02-24 02:22:00,37.9,37.4,27.02,West,270,0.0,1.3,98,0.00,,---,0.00,VWS V14.01,2013-02-24 07:22:00,
2013-02-24 02:24:00,37.9,37.4,27.02,West,270,0.0,0.0,98,0.00,,---,0.00,VWS V14.01,2013-02-24 07:24:00,
2013-02-24 02:25:00,37.9,37.4,27.02,West,270,0.0,0.0,98,0.00,,---,0.00,VWS V14.01,2013-02-24 07:25:00,
2013-02-24 02:26:00,37.9,37.4,27.02,West,270,0.0,0.0,98,0.00,,---,0.00,VWS V14.01,2013-02-24 07:26:00,
2013-02-24 02:28:00,37.9,37.4,27.02,West,270,0.0,0.0,98,0.00,,---,0.00,VWS V14.01,2013-02-24 07:28:00,
2013-02-24 02:30:00,38.1,37.6,27.02,West,270,1.1,1.6,98,0.00,,---,0.00,VWS V14.01,2013-02-24 07:30:00,
2013-02-24 02:32:00,38.1,37.6,27.02,West,270,0.0,1.6,98,0.00,,---,0.00,VWS V14.01,2013-02-24 07:32:00,
2013-02-24 02:34:00,38.1,37.6,26.99,SSW,202,1.3,1.6,98,0.00,,---,0.00,VWS V14.01,2013-02-24 07:34:00,
2013-02-24 02:35:00,38.1,37.6,26.99,South,180,0.0,1.6,98,0.00,,---,0.00,VWS V14.01,2013-02-24 07:35:00,
2013-02-24 02:36:00,38.1,37.6,26.99,South,180,0.0,1.6,98,0.00,,---,0.00,VWS V14.01,2013-02-24 07:36:00,
2013-02-24 02:38:00,37.9,37.4,26.99,WSW,248,3.4,3.4,98,0.00,,---,0.00,VWS V14.01,2013-02-24 07:38:00,
2013-02-24 02:40:00,37.9,37.4,26.99,West,270,2.2,3.1,98,0.00,,---,0.00,VWS V14.01,2013-02-24 07:40:00,
2013-02-24 02:42:00,37.8,37.2,26.99,WNW,292,0.0,3.1,98,0.00,,---,0.00,VWS V14.01,2013-02-24 07:42:00,
2013-02-24 02:44:00,36.9,36.3,26.99,WSW,248,0.0,0.0,98,0.00,,---,0.00,VWS V14.01,2013-02-24 07:44:00,
2013-02-24 02:45:00,37.6,37.1,26.99,WSW,248,2.5,2.5,98,0.00,,---,0.00,VWS V14.01,2013-02-24 07:45:00,
2013-02-24 02:46:00,37.0,36.5,26.99,WSW,248,0.0,0.0,98,0.00,,---,0.00,VWS V14.01,2013-02-24 07:46:00,
2013-02-24 02:48:00,37.4,36.9,26.99,West,270,3.4,3.4,98,0.00,,---,0.00,VWS V14.01,2013-02-24 07:48:00,
2013-02-24 02:50:00,37.0,36.5,26.99,ENE,68,0.9,1.1,98,0.00,,---,0.00,VWS V14.01,2013-02-24 07:50:00,
2013-02-24 02:52:00,37.0,36.5,26.99,East,90,1.6,2.0,98,0.00,,---,0.00,VWS V14.01,2013-02-24 07:52:00,
2013-02-24 02:54:00,37.0,36.5,26.99,South,180,1.1,2.2,98,0.00,,---,0.00,VWS V14.01,2013-02-24 07:54:00,
2013-02-24 02:55:00,36.9,36.3,26.99,WSW,248,0.0,1.1,98,0.00,,---,0.00,VWS V14.01,2013-02-24 07:55:00,
2013-02-24 02:56:00,36.9,36.3,26.99,West,270,0.0,1.1,98,0.00,,---,0.00,VWS V14.01,2013-02-24 07:56:00,
2013-02-24 02:58:00,36.9,36.3,26.99,West,270,1.6,1.6,98,0.00,,---,0.00,VWS V14.01,2013-02-24 07:58:00,
2013-02-24 03:00:00,36.7,36.2,26.99,North,0,2.0,2.0,98,0.00,,---,0.00,VWS V14.01,2013-02-24 08:00:00,
2013-02-24 03:02:00,36.7,36.2,26.99,NE,45,2.0,2.0,98,0.00,,---,0.00,VWS V14.01,2013-02-24 08:02:00,
2013-02-24 03:04:00,36.7,36.2,26.99,East,90,1.3,2.0,98,0.00,,---,0.00,VWS V14.01,2013-02-24 08:04:00,
2013-02-24 03:05:00,36.7,36.2,26.99,East,90,0.0,2.0,98,0.00,,---,0.00,VWS V14.01,2013-02-24 08:05:00,
2013-02-24 03:06:00,36.7,36.2,26.99,East,90,0.0,2.0,98,0.00,,---,0.00,VWS V14.01,2013-02-24 08:06:00,
2013-02-24 03:08:00,36.7,36.2,26.99,SSW,202,0.9,0.9,98,0.00,,---,0.00,VWS V14.01,2013-02-24 08:08:00,
2013-02-24 03:10:00,36.7,36.2,26.99,SSW,202,1.3,1.3,98,0.00,,---,0.00,VWS V14.01,2013-02-24 08:10:00,
2013-02-24 03:12:00,36.7,36.2,26.99,West,270,1.6,1.6,98,0.00,,---,0.00,VWS V14.01,2013-02-24 08:12:00,
2013-02-24 03:14:00,36.7,36.2,26.99,West,270,0.9,1.6,98,0.00,,---,0.00,VWS V14.01,2013-02-24 08:14:00,
2013-02-24 03:15:00,36.7,36.2,26.99,West,270,0.0,0.9,98,0.00,,---,0.00,VWS V14.01,2013-02-24 08:15:00,
2013-02-24 03:16:00,36.7,36.2,26.99,West,270,0.0,0.9,98,0.00,,---,0.00,VWS V14.01,2013-02-24 08:16:00,
2013-02-24 03:18:00,36.7,36.2,27.02,West,270,0.9,1.3,98,0.00,,---,0.00,VWS V14.01,2013-02-24 08:18:00,
2013-02-24 03:20:00,36.7,36.2,27.02,West,270,0.0,0.0,98,0.00,,---,0.00,VWS V14.01,2013-02-24 08:20:00,
2013-02-24 03:22:00,36.7,36.2,27.02,West,270,0.0,0.0,98,0.00,,---,0.00,VWS V14.01,2013-02-24 08:22:00,
2013-02-24 03:24:00,36.7,36.2,27.02,West,270,0.0,0.0,98,0.00,,---,0.00,VWS V14.01,2013-02-24 08:24:00,
2013-02-24 03:25:00,36.7,36.2,27.02,West,270,0.0,0.0,98,0.00,,---,0.00,VWS V14.01,2013-02-24 08:25:00,
2013-02-24 03:26:00,36.7,36.2,27.02,SSE,158,0.0,0.0,98,0.00,,---,0.00,VWS V14.01,2013-02-24 08:26:00,
2013-02-24 03:28:00,36.9,36.3,27.02,South,180,1.3,1.3,98,0.00,,---,0.00,VWS V14.01,2013-02-24 08:28:00,
2013-02-24 03:30:00,36.9,36.3,27.02,South,180,0.0,0.0,98,0.00,,---,0.00,VWS V14.01,2013-02-24 08:30:00,
2013-02-24 03:32:00,36.9,36.3,27.02,South,180,0.0,0.0,98,0.00,,---,0.00,VWS V14.01,2013-02-24 08:32:00,
2013-02-24 03:34:00,36.9,36.3,26.99,South,180,0.0,0.0,98,0.00,,---,0.00,VWS V14.01,2013-02-24 08:34:00,
2013-02-24 03:35:00,36.9,36.3,26.99,South,180,0.0,0.0,98,0.00,,---,0.00,VWS V14.01,2013-02-24 08:35:00,
2013-02-24 03:36:00,36.9,36.3,26.99,South,180,0.0,0.0,98,0.00,,---,0.00,VWS V14.01,2013-02-24 08:36:00,
2013-02-24 03:38:00,36.9,36.3,26.99,South,180,0.0,0.0,98,0.00,,---,0.00,VWS V14.01,2013-02-24 08:38:00,
2013-02-24 03:40:00,36.9,36.3,26.99,South,180,0.0,0.0,98,0.00,,---,0.00,VWS V14.01,2013-02-24 08:40:00,
2013-02-24 03:42:00,36.9,36.3,26.99,WSW,248,0.0,0.0,98,0.00,,---,0.00,VWS V14.01,2013-02-24 08:42:00,
2013-02-24 03:44:00,36.9,36.3,26.99,WSW,248,0.0,0.0,98,0.00,,---,0.00,VWS V14.01,2013-02-24 08:44:00,
2013-02-24 03:45:00,36.9,36.3,26.99,WSW,248,0.0,0.0,98,0.00,,---,0.00,VWS V14.01,2013-02-24 08:45:00,
2013-02-24 03:46:00,37.0,36.5,26.99,WSW,248,0.0,0.0,98,0.00,,---,0.00,VWS V14.01,2013-02-24 08:46:00,
2013-02-24 03:48:00,37.0,36.5,26.99,WSW,248,0.0,0.0,98,0.00,,---,0.00,VWS V14.01,2013-02-24 08:48:00,
2013-02-24 03:50:00,37.0,36.5,26.99,West,270,0.0,0.0,98,0.00,,---,0.00,VWS V14.01,2013-02-24 08:50:00,
2013-02-24 03:52:00,37.0,36.5,26.99,West,270,0.0,0.0,98,0.00,,---,0.00,VWS V14.01,2013-02-24 08:52:00,
2013-02-24 03:54:00,37.0,36.5,26.99,WNW,292,0.0,0.0,98,0.00,,---,0.00,VWS V14.01,2013-02-24 08:54:00,
2013-02-24 03:55:00,37.0,36.5,26.99,WNW,292,0.0,0.0,98,0.00,,---,0.00,VWS V14.01,2013-02-24 08:55:00,
2013-02-24 03:56:00,37.0,36.5,26.99,WNW,292,0.0,0.0,98,0.00,,---,0.00,VWS V14.01,2013-02-24 08:56:00,
2013-02-24 03:58:00,37.0,36.5,26.99,WNW,292,0.0,0.0,98,0.00,,---,0.00,VWS V14.01,2013-02-24 08:58:00,
2013-02-24 04:00:00,36.9,36.3,26.99,WNW,292,0.0,0.0,98,0.00,,---,0.00,VWS V14.01,2013-02-24 09:00:00,
2013-02-24 04:02:00,36.9,36.3,26.99,WNW,292,0.0,0.0,98,0.00,,---,0.00,VWS V14.01,2013-02-24 09:02:00,
2013-02-24 04:04:00,36.9,36.3,27.02,WNW,292,0.0,0.0,98,0.00,,---,0.00,VWS V14.01,2013-02-24 09:04:00,
2013-02-24 04:05:00,36.9,36.3,27.02,WNW,292,0.0,1.3,98,0.00,,---,0.00,VWS V14.01,2013-02-24 09:05:00,
2013-02-24 04:06:00,36.9,36.3,27.02,SSW,202,1.1,1.3,98,0.00,,---,0.00,VWS V14.01,2013-02-24 09:06:00,
2013-02-24 04:08:00,36.9,36.3,27.02,SSW,202,0.0,1.1,98,0.00,,---,0.00,VWS V14.01,2013-02-24 09:08:00,
2013-02-24 04:10:00,36.9,36.3,27.02,South,180,0.0,0.0,98,0.00,,---,0.00,VWS V14.01,2013-02-24 09:10:00,
2013-02-24 04:12:00,36.9,36.3,27.02,South,180,0.0,0.0,98,0.00,,---,0.00,VWS V14.01,2013-02-24 09:12:00,
2013-02-24 04:14:00,36.9,36.3,27.02,SSE,158,0.0,0.0,98,0.00,,---,0.00,VWS V14.01,2013-02-24 09:14:00,
2013-02-24 04:15:00,36.9,36.3,27.02,SSE,158,0.0,0.0,98,0.00,,---,0.00,VWS V14.01,2013-02-24 09:15:00,
2013-02-24 04:16:00,36.9,36.3,27.02,SSE,158,0.0,0.0,98,0.00,,---,0.00,VWS V14.01,2013-02-24 09:16:00,
2013-02-24 04:18:00,36.9,36.3,27.02,SSE,158,0.0,0.9,98,0.00,,---,0.00,VWS V14.01,2013-02-24 09:18:00,
2013-02-24 04:20:00,36.9,36.3,27.02,East,90,1.6,1.6,98,0.00,,---,0.00,VWS V14.01,2013-02-24 09:20:00,
2013-02-24 04:22:00,36.9,36.3,27.02,East,90,1.6,1.6,98,0.00,,---,0.00,VWS V14.01,2013-02-24 09:22:00,
2013-02-24 04:24:00,36.7,36.2,27.02,East,90,0.0,1.6,98,0.00,,---,0.00,VWS V14.01,2013-02-24 09:24:00,
2013-02-24 04:25:00,36.7,36.2,27.02,ENE,68,1.6,1.6,98,0.00,,---,0.00,VWS V14.01,2013-02-24 09:25:00,
2013-02-24 04:26:00,36.7,36.2,27.02,ENE,68,1.6,1.6,98,0.00,,---,0.00,VWS V14.01,2013-02-24 09:26:00,
2013-02-24 04:28:00,36.7,36.2,27.02,NE,45,1.3,1.6,98,0.00,,---,0.00,VWS V14.01,2013-02-24 09:28:00,
2013-02-24 04:30:00,36.7,36.2,27.02,NE,45,0.0,0.0,98,0.00,,---,0.00,VWS V14.01,2013-02-24 09:30:00,
2013-02-24 04:32:00,36.7,36.2,27.02,NE,45,1.1,1.1,98,0.00,,---,0.00,VWS V14.01,2013-02-24 09:32:00,
2013-02-24 04:34:00,36.7,35.9,27.02,NE,45,0.0,1.1,97,0.00,,---,0.00,VWS V14.01,2013-02-24 09:34:00,
2013-02-24 04:35:00,36.7,35.9,27.02,NE,45,0.0,0.0,97,0.00,,---,0.00,VWS V14.01,2013-02-24 09:35:00,
2013-02-24 04:36:00,35.4,34.4,27.02,NNW,338,0.0,1.6,96,0.00,,---,0.00,VWS V14.01,2013-02-24 09:36:00,
2013-02-24 04:38:00,35.2,34.0,27.02,ENE,68,0.9,0.9,95,0.00,,---,0.00,VWS V14.01,2013-02-24 09:38:00,
2013-02-24 04:40:00,36.7,35.9,27.02,NE,45,0.0,0.0,97,0.00,,---,0.00,VWS V14.01,2013-02-24 09:40:00,
2013-02-24 04:42:00,36.7,35.9,27.02,NE,45,0.0,0.0,97,0.00,,---,0.00,VWS V14.01,2013-02-24 09:42:00,
2013-02-24 04:44:00,36.7,35.9,27.02,NE,45,0.0,0.0,97,0.00,,---,0.00,VWS V14.01,2013-02-24 09:44:00,
2013-02-24 04:45:00,36.7,35.9,27.02,NE,45,0.0,0.0,97,0.00,,---,0.00,VWS V14.01,2013-02-24 09:45:00,
2013-02-24 04:46:00,36.7,35.9,27.02,NE,45,0.0,0.0,97,0.00,,---,0.00,VWS V14.01,2013-02-24 09:46:00,
2013-02-24 04:48:00,36.7,35.9,27.02,NE,45,1.1,1.1,97,0.00,,---,0.00,VWS V14.01,2013-02-24 09:48:00,
2013-02-24 04:50:00,36.5,35.7,27.02,NE,45,0.0,0.0,97,0.00,,---,0.00,VWS V14.01,2013-02-24 09:50:00,
2013-02-24 04:52:00,34.5,33.0,27.02,East,90,1.1,1.3,94,0.00,,---,0.00,VWS V14.01,2013-02-24 09:52:00,
2013-02-24 04:54:00,36.5,35.7,27.02,NE,45,0.0,0.9,97,0.00,,---,0.00,VWS V14.01,2013-02-24 09:54:00,
2013-02-24 04:55:00,36.5,35.7,27.02,NE,45,0.0,0.0,97,0.00,,---,0.00,VWS V14.01,2013-02-24 09:55:00,
2013-02-24 04:56:00,36.3,35.5,27.02,NE,45,0.9,0.9,97,0.00,,---,0.00,VWS V14.01,2013-02-24 09:56:00,
2013-02-24 04:58:00,36.3,35.5,27.02,NE,45,0.0,0.9,97,0.00,,---,0.00,VWS V14.01,2013-02-24 09:58:00,
2013-02-24 05:00:00,36.3,35.3,27.02,NE,45,0.0,0.0,96,0.00,,---,0.00,VWS V14.01,2013-02-24 10:00:00,
2013-02-24 05:02:00,36.3,35.3,27.02,NE,45,0.0,0.0,96,0.00,,---,0.00,VWS V14.01,2013-02-24 10:02:00,
2013-02-24 05:04:00,36.3,35.3,27.02,East,90,0.0,0.0,96,0.00,,---,0.00,VWS V14.01,2013-02-24 10:04:00,
2013-02-24 05:05:00,36.1,35.1,27.02,East,90,0.0,0.0,96,0.00,,---,0.00,VWS V14.01,2013-02-24 10:05:00,
2013-02-24 05:06:00,36.1,35.1,27.02,West,270,0.0,0.0,96,0.00,,---,0.00,VWS V14.01,2013-02-24 10:06:00,
2013-02-24 05:08:00,36.1,35.1,27.02,SW,225,0.9,1.1,96,0.00,,---,0.00,VWS V14.01,2013-02-24 10:08:00,
2013-02-24 05:10:00,36.1,35.1,27.02,SSW,202,0.0,0.0,96,0.00,,---,0.00,VWS V14.01,2013-02-24 10:10:00,
2013-02-24 05:12:00,36.1,35.1,27.02,SSW,202,0.0,0.0,96,0.00,,---,0.00,VWS V14.01,2013-02-24 10:12:00,
2013-02-24 05:14:00,36.1,35.1,27.02,SSW,202,0.0,0.0,96,0.00,,---,0.00,VWS V14.01,2013-02-24 10:14:00,
2013-02-24 05:15:00,36.1,35.1,27.02,SSW,202,0.0,0.0,96,0.00,,---,0.00,VWS V14.01,2013-02-24 10:15:00,
2013-02-24 05:16:00,36.1,35.1,27.02,SSW,202,0.0,0.0,96,0.00,,---,0.00,VWS V14.01,2013-02-24 10:16:00,
2013-02-24 05:18:00,36.1,35.1,27.02,East,90,0.0,0.0,96,0.00,,---,0.00,VWS V14.01,2013-02-24 10:18:00,
2013-02-24 05:20:00,36.1,35.1,27.02,ESE,112,1.6,1.6,96,0.00,,---,0.00,VWS V14.01,2013-02-24 10:20:00,
2013-02-24 05:22:00,34.2,32.6,27.05,ENE,68,1.1,1.1,94,0.00,,---,0.00,VWS V14.01,2013-02-24 10:22:00,
2013-02-24 05:24:00,36.1,35.1,27.02,East,90,1.1,1.3,96,0.00,,---,0.00,VWS V14.01,2013-02-24 10:24:00,
2013-02-24 05:25:00,36.0,34.9,27.02,East,90,1.6,2.2,96,0.00,,---,0.00,VWS V14.01,2013-02-24 10:25:00,
2013-02-24 05:26:00,36.0,34.9,27.02,East,90,2.2,2.2,96,0.00,,---,0.00,VWS V14.01,2013-02-24 10:26:00,
2013-02-24 05:28:00,35.8,34.8,27.02,ESE,112,1.6,2.2,96,0.00,,---,0.00,VWS V14.01,2013-02-24 10:28:00,
2013-02-24 05:30:00,35.8,34.8,27.02,ESE,112,0.0,1.6,96,0.00,,---,0.00,VWS V14.01,2013-02-24 10:30:00,
2013-02-24 05:32:00,35.6,34.3,27.02,ENE,68,0.0,1.6,95,0.00,,---,0.00,VWS V14.01,2013-02-24 10:32:00,
2013-02-24 05:34:00,35.4,34.4,27.02,NNW,338,1.6,1.6,96,0.00,,---,0.00,VWS V14.01,2013-02-24 10:34:00,
2013-02-24 05:35:00,35.4,34.4,27.02,NNW,338,0.0,1.6,96,0.00,,---,0.00,VWS V14.01,2013-02-24 10:35:00,
2013-02-24 05:36:00,34.0,32.4,27.05,NE,45,2.5,2.7,94,0.00,,---,0.00,VWS V14.01,2013-02-24 10:36:00,
2013-02-24 05:38:00,35.2,34.0,27.02,ENE,68,0.9,0.9,95,0.00,,---,0.00,VWS V14.01,2013-02-24 10:38:00,
2013-02-24 05:40:00,35.1,33.8,27.02,ENE,68,0.0,0.0,95,0.00,,---,0.00,VWS V14.01,2013-02-24 10:40:00,
2013-02-24 05:42:00,35.1,33.8,27.02,ENE,68,0.0,0.0,95,0.00,,---,0.00,VWS V14.01,2013-02-24 10:42:00,
2013-02-24 05:44:00,34.9,33.6,27.02,ENE,68,1.3,1.3,95,0.00,,---,0.00,VWS V14.01,2013-02-24 10:44:00,
2013-02-24 05:45:00,34.7,33.2,27.02,East,90,2.2,2.7,94,0.00,,---,0.00,VWS V14.01,2013-02-24 10:45:00,
2013-02-24 05:46:00,34.7,33.2,27.02,ENE,68,1.3,2.7,94,0.00,,---,0.00,VWS V14.01,2013-02-24 10:46:00,
2013-02-24 05:48:00,34.7,33.2,27.02,ENE,68,1.6,2.7,94,0.00,,---,0.00,VWS V14.01,2013-02-24 10:48:00,
2013-02-24 05:50:00,34.5,33.0,27.02,ENE,68,0.9,1.3,94,0.00,,---,0.00,VWS V14.01,2013-02-24 10:50:00,
2013-02-24 05:52:00,34.5,33.0,27.02,East,90,1.1,1.3,94,0.00,,---,0.00,VWS V14.01,2013-02-24 10:52:00,
2013-02-24 05:54:00,34.5,32.7,27.02,NE,45,1.3,2.0,93,0.00,,---,0.00,VWS V14.01,2013-02-24 10:54:00,
2013-02-24 05:55:00,34.5,32.7,27.02,NE,45,0.0,1.3,93,0.00,,---,0.00,VWS V14.01,2013-02-24 10:55:00,
2013-02-24 05:56:00,34.3,32.5,27.02,NE,45,0.0,1.3,93,0.00,,---,0.00,VWS V14.01,2013-02-24 10:56:00,
2013-02-24 05:58:00,34.3,32.5,27.02,WNW,292,0.0,0.0,93,0.00,,---,0.00,VWS V14.01,2013-02-24 10:58:00,
2013-02-24 06:00:00,34.3,32.5,27.02,NNW,338,0.0,0.0,93,0.00,,---,0.00,VWS V14.01,2013-02-24 11:00:00,
2013-02-24 06:02:00,34.3,32.5,27.02,NNW,338,0.0,0.0,93,0.00,,---,0.00,VWS V14.01,2013-02-24 11:02:00,
2013-02-24 06:04:00,34.3,32.5,27.02,NNW,338,0.0,0.0,93,0.00,,---,0.00,VWS V14.01,2013-02-24 11:04:00,
2013-02-24 06:05:00,34.3,32.5,27.02,South,180,0.0,0.0,93,0.00,,---,0.00,VWS V14.01,2013-02-24 11:05:00,
2013-02-24 06:06:00,34.3,32.8,27.02,South,180,0.0,0.0,94,0.00,,---,0.00,VWS V14.01,2013-02-24 11:06:00,
2013-02-24 06:08:00,34.3,32.8,27.02,South,180,0.0,0.0,94,0.00,,---,0.00,VWS V14.01,2013-02-24 11:08:00,
2013-02-24 06:10:00,34.3,32.8,27.02,East,90,0.0,0.0,94,0.00,,---,0.00,VWS V14.01,2013-02-24 11:10:00,
2013-02-24 06:12:00,34.3,32.8,27.02,East,90,0.0,0.0,94,0.00,,---,0.00,VWS V14.01,2013-02-24 11:12:00,
2013-02-24 06:14:00,34.3,32.8,27.02,East,90,0.0,0.0,94,0.00,,---,0.00,VWS V14.01,2013-02-24 11:14:00,
2013-02-24 06:15:00,34.3,32.8,27.02,East,90,0.0,0.9,94,0.00,,---,0.00,VWS V14.01,2013-02-24 11:15:00,
2013-02-24 06:16:00,34.2,32.6,27.02,East,90,0.0,0.9,94,0.00,,---,0.00,VWS V14.01,2013-02-24 11:16:00,
2013-02-24 06:18:00,34.2,32.6,27.05,East,90,0.0,0.0,94,0.00,,---,0.00,VWS V14.01,2013-02-24 11:18:00,
2013-02-24 06:20:00,34.2,32.6,27.05,ENE,68,0.0,0.0,94,0.00,,---,0.00,VWS V14.01,2013-02-24 11:20:00,
2013-02-24 06:22:00,34.2,32.6,27.05,ENE,68,1.1,1.1,94,0.00,,---,0.00,VWS V14.01,2013-02-24 11:22:00,
2013-02-24 06:24:00,34.2,32.6,27.05,East,90,1.3,2.0,94,0.00,,---,0.00,VWS V14.01,2013-02-24 11:24:00,
2013-02-24 06:25:00,34.2,32.6,27.05,East,90,0.0,1.3,94,0.00,,---,0.00,VWS V14.01,2013-02-24 11:25:00,
2013-02-24 06:26:00,34.2,32.6,27.05,East,90,0.0,1.3,94,0.00,,---,0.00,VWS V14.01,2013-02-24 11:26:00,
2013-02-24 06:28:00,34.0,32.4,27.05,East,90,0.0,0.0,94,0.00,,---,0.00,VWS V14.01,2013-02-24 11:28:00,
2013-02-24 06:30:00,34.0,32.4,27.05,East,90,0.0,0.9,94,0.00,,---,0.00,VWS V14.01,2013-02-24 11:30:00,
2013-02-24 06:32:00,34.0,32.4,27.05,ENE,68,0.0,0.9,94,0.00,,---,0.00,VWS V14.01,2013-02-24 11:32:00,
2013-02-24 06:34:00,34.0,32.4,27.05,NNE,22,1.6,1.6,94,0.00,,---,0.00,VWS V14.01,2013-02-24 11:34:00,
2013-02-24 06:35:00,34.0,32.4,27.05,NNE,22,1.1,2.0,94,0.00,,---,0.00,VWS V14.01,2013-02-24 11:35:00,
2013-02-24 06:36:00,34.0,32.4,27.05,NE,45,2.5,2.7,94,0.00,,---,0.00,VWS V14.01,2013-02-24 11:36:00,
2013-02-24 06:38:00,34.0,32.2,27.05,NW,315,1.3,2.5,93,0.00,,---,0.00,VWS V14.01,2013-02-24 11:38:00,
2013-02-24 06:40:00,34.0,32.2,27.05,NW,315,1.1,1.3,93,0.00,,---,0.00,VWS V14.01,2013-02-24 11:40:00,
2013-02-24 06:42:00,33.8,32.0,27.05,NW,315,0.0,0.0,93,0.00,,---,0.00,VWS V14.01,2013-02-24 11:42:00,
2013-02-24 06:44:00,33.8,32.0,27.05,NW,315,0.0,0.0,93,0.00,,---,0.00,VWS V14.01,2013-02-24 11:44:00,
2013-02-24 06:45:00,33.8,32.0,27.05,NW,315,0.0,0.0,93,0.00,,---,0.00,VWS V14.01,2013-02-24 11:45:00,
2013-02-24 06:46:00,33.6,32.1,27.05,NW,315,0.0,0.0,94,0.00,,---,0.00,VWS V14.01,2013-02-24 11:46:00,
2013-02-24 06:48:00,33.6,32.1,27.08,SW,225,0.0,0.0,94,0.00,,---,0.00,VWS V14.01,2013-02-24 11:48:00,
2013-02-24 06:50:00,33.8,32.3,27.08,WSW,248,2.0,2.0,94,0.00,,---,0.00,VWS V14.01,2013-02-24 11:50:00,
2013-02-24 06:52:00,33.8,32.5,27.08,South,180,0.0,2.2,95,0.00,,---,0.00,VWS V14.01,2013-02-24 11:52:00,
2013-02-24 06:54:00,33.8,32.5,27.08,East,90,0.0,0.0,95,0.00,,---,0.00,VWS V14.01,2013-02-24 11:54:00,
2013-02-24 06:55:00,33.8,32.5,27.08,NE,45,1.3,1.6,95,0.00,,---,0.00,VWS V14.01,2013-02-24 11:55:00,
2013-02-24 06:56:00,33.8,32.5,27.08,NE,45,0.0,1.6,95,0.00,,---,0.00,VWS V14.01,2013-02-24 11:56:00,
2013-02-24 06:58:00,33.8,32.5,27.08,NE,45,0.0,0.0,95,0.00,,---,0.00,VWS V14.01,2013-02-24 11:58:00,
2013-02-24 07:00:00,33.8,32.5,27.08,East,90,1.6,1.6,95,0.00,,---,0.00,VWS V14.01,2013-02-24 12:00:00,
2013-02-24 07:02:00,33.8,32.5,27.08,SSE,158,2.0,2.2,95,0.00,,---,0.00,VWS V14.01,2013-02-24 12:02:00,
2013-02-24 07:04:00,33.8,32.5,27.08,SSE,158,0.0,2.0,95,0.00,,---,0.00,VWS V14.01,2013-02-24 12:04:00,
2013-02-24 07:05:00,33.8,32.5,27.08,SSE,158,0.0,0.0,95,0.00,,---,0.00,VWS V14.01,2013-02-24 12:05:00,
2013-02-24 07:06:00,33.8,32.5,27.08,SSE,158,0.0,0.0,95,0.00,,---,0.00,VWS V14.01,2013-02-24 12:06:00,
2013-02-24 07:08:00,33.8,32.5,27.08,ENE,68,0.0,0.0,95,0.00,,---,0.00,VWS V14.01,2013-02-24 12:08:00,
2013-02-24 07:10:00,33.8,32.5,27.08,SSE,158,0.0,0.0,95,0.00,,---,0.00,VWS V14.01,2013-02-24 12:10:00,
2013-02-24 07:12:00,33.8,32.5,27.08,SSE,158,0.0,0.0,95,0.00,,---,0.00,VWS V14.01,2013-02-24 12:12:00,
2013-02-24 07:14:00,33.8,32.5,27.08,WSW,248,0.0,0.0,95,0.00,,---,0.00,VWS V14.01,2013-02-24 12:14:00,
2013-02-24 07:15:00,33.8,32.8,27.08,WSW,248,0.9,1.6,96,0.00,,---,0.00,VWS V14.01,2013-02-24 12:15:00,
2013-02-24 07:16:00,33.8,32.8,27.08,WSW,248,0.9,1.6,96,0.00,,---,0.00,VWS V14.01,2013-02-24 12:16:00,
2013-02-24 07:18:00,34.0,33.0,27.08,WSW,248,1.3,1.3,96,0.00,,---,0.00,VWS V14.01,2013-02-24 12:18:00,
2013-02-24 07:20:00,34.0,33.0,27.08,WSW,248,2.0,2.0,96,0.00,,---,0.00,VWS V14.01,2013-02-24 12:20:00,
2013-02-24 07:22:00,34.0,33.0,27.08,WSW,248,0.9,2.0,96,0.00,,---,0.00,VWS V14.01,2013-02-24 12:22:00,
2013-02-24 07:24:00,34.0,33.0,27.08,WSW,248,0.0,0.9,96,0.00,,---,0.00,VWS V14.01,2013-02-24 12:24:00,
2013-02-24 07:25:00,34.0,33.0,27.08,WSW,248,0.0,0.0,96,0.00,,---,0.00,VWS V14.01,2013-02-24 12:25:00,
2013-02-24 07:26:00,34.0,33.0,27.08,WSW,248,0.0,0.0,96,0.00,,---,0.00,VWS V14.01,2013-02-24 12:26:00,
2013-02-24 07:28:00,34.0,33.0,27.08,SSW,202,1.6,2.0,96,0.00,,---,0.00,VWS V14.01,2013-02-24 12:28:00,
2013-02-24 07:30:00,34.2,33.4,27.08,SSE,158,0.0,0.0,97,0.00,,---,0.00,VWS V14.01,2013-02-24 12:30:00,
2013-02-24 07:32:00,34.2,33.4,27.08,NNW,338,1.6,2.5,97,0.00,,---,0.00,VWS V14.01,2013-02-24 12:32:00,
2013-02-24 07:34:00,34.3,33.6,27.08,WNW,292,1.3,1.6,97,0.00,,---,0.00,VWS V14.01,2013-02-24 12:34:00,
2013-02-24 07:35:00,34.3,33.6,27.08,ENE,68,2.0,2.5,97,0.00,,---,0.00,VWS V14.01,2013-02-24 12:35:00,
2013-02-24 07:36:00,34.3,33.6,27.08,NNE,22,3.6,3.6,97,0.00,,---,0.00,VWS V14.01,2013-02-24 12:36:00,
2013-02-24 07:38:00,34.3,33.6,27.08,NE,45,0.9,3.6,97,0.00,,---,0.00,VWS V14.01,2013-02-24 12:38:00,
2013-02-24 07:40:00,34.3,33.6,27.08,NW,315,0.0,0.0,97,0.00,,---,0.00,VWS V14.01,2013-02-24 12:40:00,
2013-02-24 07:42:00,34.5,34.0,27.08,NW,315,0.0,0.0,98,0.00,,---,0.00,VWS V14.01,2013-02-24 12:42:00,
2013-02-24 07:44:00,34.7,34.2,27.08,WNW,292,0.0,1.3,98,0.00,,---,0.00,VWS V14.01,2013-02-24 12:44:00,
2013-02-24 07:45:00,34.7,34.2,27.08,WNW,292,0.0,0.0,98,0.00,,---,0.00,VWS V14.01,2013-02-24 12:45:00,
2013-02-24 07:46:00,34.9,34.4,27.08,WNW,292,0.0,0.0,98,0.00,,---,0.00,VWS V14.01,2013-02-24 12:46:00,
2013-02-24 07:48:00,35.1,34.5,27.08,NNW,338,0.0,1.3,98,0.00,,---,0.00,VWS V14.01,2013-02-24 12:48:00,
2013-02-24 07:50:00,35.2,34.7,27.08,NNW,338,0.0,1.1,98,0.00,,---,0.00,VWS V14.01,2013-02-24 12:50:00,
2013-02-24 07:52:00,35.4,34.9,27.08,NNW,338,1.1,1.1,98,0.00,,---,0.00,VWS V14.01,2013-02-24 12:52:00,
2013-02-24 07:54:00,35.4,34.9,27.08,NW,315,0.0,1.1,98,0.00,,---,0.00,VWS V14.01,2013-02-24 12:54:00,
2013-02-24 07:55:00,35.6,35.1,27.08,NE,45,1.1,2.5,98,0.00,,---,0.00,VWS V14.01,2013-02-24 12:55:00,
2013-02-24 07:56:00,35.6,35.1,27.08,NE,45,0.0,2.5,98,0.00,,---,0.00,VWS V14.01,2013-02-24 12:56:00,
2013-02-24 07:58:00,35.8,35.3,27.08,ENE,68,1.1,1.1,98,0.00,,---,0.00,VWS V14.01,2013-02-24 12:58:00,
2013-02-24 08:00:00,36.0,35.5,27.08,WNW,292,0.0,1.3,98,0.00,,---,0.00,VWS V14.01,2013-02-24 13:00:00,
2013-02-24 08:02:00,36.0,35.5,27.08,NE,45,1.6,2.5,98,0.00,,---,0.00,VWS V14.01,2013-02-24 13:02:00,
2013-02-24 08:04:00,36.1,35.6,27.08,NNW,338,2.2,3.1,98,0.00,,---,0.00,VWS V14.01,2013-02-24 13:04:00,
2013-02-24 08:05:00,36.1,35.6,27.08,ESE,112,1.1,2.2,98,0.00,,---,0.00,VWS V14.01,2013-02-24 13:05:00,
2013-02-24 08:06:00,36.1,35.6,27.08,NE,45,2.5,2.5,98,0.00,,---,0.00,VWS V14.01,2013-02-24 13:06:00,
2013-02-24 08:08:00,36.3,35.8,27.08,ENE,68,1.3,2.7,98,0.00,,---,0.00,VWS V14.01,2013-02-24 13:08:00,
2013-02-24 08:10:00,36.3,35.8,27.08,East,90,4.0,4.0,98,0.00,,---,0.00,VWS V14.01,2013-02-24 13:10:00,
2013-02-24 08:12:00,39.0,35.8,27.11,East,90,3.6,3.6,88,0.00,,---,0.00,VWS V14.01,2013-02-24 13:12:00,
2013-02-24 08:14:00,36.5,36.0,27.08,East,90,2.9,4.7,98,0.00,,---,0.00,VWS V14.01,2013-02-24 13:14:00,
2013-02-24 08:15:00,36.7,36.2,27.08,NE,45,2.9,3.6,98,0.00,,---,0.00,VWS V14.01,2013-02-24 13:15:00,
2013-02-24 08:16:00,36.7,36.2,27.08,ENE,68,2.7,3.8,98,0.00,,---,0.00,VWS V14.01,2013-02-24 13:16:00,
2013-02-24 08:18:00,36.7,36.2,27.11,East,90,2.2,3.8,98,0.00,,---,0.00,VWS V14.01,2013-02-24 13:18:00,
2013-02-24 08:20:00,36.9,36.3,27.11,ENE,68,1.6,2.7,98,0.00,,---,0.00,VWS V14.01,2013-02-24 13:20:00,
2013-02-24 08:22:00,36.9,36.3,27.11,NE,45,4.0,4.0,98,0.00,,---,0.00,VWS V14.01,2013-02-24 13:22:00,
2013-02-24 08:24:00,36.9,36.3,27.11,ENE,68,2.7,4.0,98,0.00,,---,0.00,VWS V14.01,2013-02-24 13:24:00,
2013-02-24 08:25:00,37.0,36.5,27.11,ENE,68,2.2,2.9,98,0.00,,---,0.00,VWS V14.01,2013-02-24 13:25:00,
2013-02-24 08:26:00,37.0,36.5,27.11,ENE,68,2.2,2.9,98,0.00,,---,0.00,VWS V14.01,2013-02-24 13:26:00,
2013-02-24 08:28:00,37.0,36.5,27.11,East,90,4.3,4.3,98,0.00,,---,0.00,VWS V14.01,2013-02-24 13:28:00,
2013-02-24 08:30:00,37.2,36.7,27.11,ENE,68,4.0,4.7,98,0.00,,---,0.00,VWS V14.01,2013-02-24 13:30:00,
2013-02-24 08:32:00,37.4,36.9,27.11,East,90,3.1,4.7,98,0.00,,---,0.00,VWS V14.01,2013-02-24 13:32:00,
2013-02-24 08:34:00,37.4,36.9,27.11,NE,45,2.7,3.1,98,0.00,,---,0.00,VWS V14.01,2013-02-24 13:34:00,
2013-02-24 08:35:00,37.4,36.6,27.11,ENE,68,3.6,3.6,97,0.00,,---,0.00,VWS V14.01,2013-02-24 13:35:00,
2013-02-24 08:36:00,37.4,36.6,27.11,NE,45,2.7,3.6,97,0.00,,---,0.00,VWS V14.01,2013-02-24 13:36:00,
2013-02-24 08:38:00,37.6,36.8,27.11,ENE,68,2.5,3.1,97,0.00,,---,0.00,VWS V14.01,2013-02-24 13:38:00,
2013-02-24 08:40:00,37.6,36.8,27.11,East,90,2.9,2.9,97,0.00,,---,0.00,VWS V14.01,2013-02-24 13:40:00,
2013-02-24 08:42:00,37.6,36.8,27.11,ENE,68,1.3,3.8,97,0.00,,---,0.00,VWS V14.01,2013-02-24 13:42:00,
2013-02-24 08:44:00,37.6,36.8,27.11,NE,45,2.5,3.6,97,0.00,,---,0.00,VWS V14.01,2013-02-24 13:44:00,
2013-02-24 08:45:00,37.6,36.5,27.11,ENE,68,4.0,4.0,96,0.00,,---,0.00,VWS V14.01,2013-02-24 13:45:00,
2013-02-24 08:46:00,37.6,36.5,27.11,East,90,2.9,4.0,96,0.00,,---,0.00,VWS V14.01,2013-02-24 13:46:00,
2013-02-24 08:48:00,37.6,36.5,27.11,NNE,22,4.3,4.3,96,0.00,,---,0.00,VWS V14.01,2013-02-24 13:48:00,
2013-02-24 08:50:00,37.6,36.3,27.11,ENE,68,3.1,3.1,95,0.00,,---,0.00,VWS V14.01,2013-02-24 13:50:00,
2013-02-24 08:52:00,37.6,36.3,27.11,ENE,68,1.1,3.1,95,0.00,,---,0.00,VWS V14.01,2013-02-24 13:52:00,
2013-02-24 08:54:00,37.6,36.0,27.11,ESE,112,2.0,2.9,94,0.00,,---,0.00,VWS V14.01,2013-02-24 13:54:00,
2013-02-24 08:55:00,37.6,36.0,27.11,NE,45,3.6,4.3,94,0.00,,---,0.00,VWS V14.01,2013-02-24 13:55:00,
2013-02-24 08:56:00,37.8,36.2,27.11,ENE,68,2.9,4.3,94,0.00,,---,0.00,VWS V14.01,2013-02-24 13:56:00,
2013-02-24 08:58:00,37.9,36.1,27.11,ENE,68,3.6,3.6,93,0.00,,---,0.00,VWS V14.01,2013-02-24 13:58:00,
2013-02-24 09:00:00,37.9,35.8,27.11,East,90,2.9,4.3,92,0.00,,---,0.00,VWS V14.01,2013-02-24 14:00:00,
2013-02-24 09:02:00,38.1,35.7,27.11,ENE,68,0.9,4.3,91,0.00,,---,0.00,VWS V14.01,2013-02-24 14:02:00,
2013-02-24 09:04:00,38.5,35.8,27.11,ESE,112,2.0,2.0,90,0.00,,---,0.00,VWS V14.01,2013-02-24 14:04:00,
2013-02-24 09:05:00,38.5,35.8,27.11,NE,45,3.6,3.6,90,0.00,,---,0.00,VWS V14.01,2013-02-24 14:05:00,
2013-02-24 09:06:00,38.5,35.5,27.11,NE,45,1.3,3.6,89,0.00,,---,0.00,VWS V14.01,2013-02-24 14:06:00,
2013-02-24 09:08:00,38.7,35.7,27.11,NE,45,2.0,3.1,89,0.00,,---,0.00,VWS V14.01,2013-02-24 14:08:00,
2013-02-24 09:10:00,38.8,35.6,27.11,ENE,68,1.3,1.6,88,0.00,,---,0.00,VWS V14.01,2013-02-24 14:10:00,
2013-02-24 09:12:00,39.0,35.8,27.11,East,90,3.6,3.6,88,0.00,,---,0.00,VWS V14.01,2013-02-24 14:12:00,
2013-02-24 09:14:00,39.2,35.7,27.11,East,90,2.9,3.6,87,0.00,,---,0.00,VWS V14.01,2013-02-24 14:14:00,
2013-02-24 09:15:00,39.4,35.8,27.11,East,90,0.0,2.9,87,0.00,,---,0.00,VWS V14.01,2013-02-24 14:15:00,
2013-02-24 09:16:00,39.4,35.8,27.11,ENE,68,1.6,2.9,87,0.00,,---,0.00,VWS V14.01,2013-02-24 14:16:00,
2013-02-24 09:18:00,39.6,36.0,27.11,NE,45,2.5,2.5,87,0.00,,---,0.00,VWS V14.01,2013-02-24 14:18:00,
2013-02-24 09:20:00,39.6,35.7,27.11,East,90,2.9,3.6,86,0.00,,---,0.00,VWS V14.01,2013-02-24 14:20:00,
2013-02-24 09:22:00,39.6,35.4,27.11,ENE,68,1.6,3.6,85,0.00,,---,0.00,VWS V14.01,2013-02-24 14:22:00,
2013-02-24 09:24:00,39.7,35.0,27.11,ESE,112,4.3,4.3,83,0.00,,---,0.00,VWS V14.01,2013-02-24 14:24:00,
2013-02-24 09:25:00,39.7,35.0,27.11,East,90,4.3,4.3,83,0.00,,---,0.00,VWS V14.01,2013-02-24 14:25:00,
2013-02-24 09:26:00,39.7,34.4,27.11,ESE,112,1.6,4.3,81,0.00,,---,0.00,VWS V14.01,2013-02-24 14:26:00,
2013-02-24 09:28:00,39.6,33.0,27.11,ENE,68,1.1,3.6,77,0.00,,---,0.00,VWS V14.01,2013-02-24 14:28:00,
2013-02-24 09:30:00,39.9,33.3,27.11,East,90,3.4,3.4,77,0.00,,---,0.00,VWS V14.01,2013-02-24 14:30:00,
2013-02-24 09:32:00,39.9,32.7,27.11,ENE,68,3.8,4.3,75,0.00,,---,0.00,VWS V14.01,2013-02-24 14:32:00,
2013-02-24 09:34:00,39.9,32.3,27.11,NE,45,3.6,3.8,74,0.00,,---,0.00,VWS V14.01,2013-02-24 14:34:00,
2013-02-24 09:35:00,39.9,32.3,27.11,East,90,2.7,3.6,74,0.00,,---,0.00,VWS V14.01,2013-02-24 14:35:00,
2013-02-24 09:36:00,39.9,32.0,27.11,ENE,68,2.5,3.6,73,0.00,,---,0.00,VWS V14.01,2013-02-24 14:36:00,
2013-02-24 09:38:00,40.1,32.2,27.11,East,90,2.2,3.8,73,0.00,,---,0.00,VWS V14.01,2013-02-24 14:38:00,
2013-02-24 09:40:00,40.1,31.8,27.11,ESE,112,2.5,3.1,72,0.00,,---,0.00,VWS V14.01,2013-02-24 14:40:00,
2013-02-24 09:42:00,40.3,32.0,27.11,ENE,68,2.5,3.1,72,0.00,,---,0.00,VWS V14.01,2013-02-24 14:42:00,
2013-02-24 09:44:00,40.3,32.0,27.11,ENE,68,0.0,2.7,72,0.00,,---,0.00,VWS V14.01,2013-02-24 14:44:00,
2013-02-24 09:45:00,40.5,32.2,27.11,NE,45,2.7,2.7,72,0.00,,---,0.00,VWS V14.01,2013-02-24 14:45:00,
2013-02-24 09:46:00,40.5,32.2,27.11,ENE,68,3.6,3.6,72,0.00,,---,0.00,VWS V14.01,2013-02-24 14:46:00,
2013-02-24 09:48:00,40.6,32.0,27.11,North,0,2.2,3.6,71,0.00,,---,0.00,VWS V14.01,2013-02-24 14:48:00,
2013-02-24 09:50:00,40.8,31.8,27.11,NNE,22,3.1,4.7,70,0.00,,---,0.00,VWS V14.01,2013-02-24 14:50:00,
2013-02-24 09:52:00,41.0,31.3,27.11,SE,135,3.6,4.7,68,0.00,,---,0.00,VWS V14.01,2013-02-24 14:52:00,
2013-02-24 09:54:00,41.2,31.1,27.11,NNE,22,2.5,3.6,67,0.00,,---,0.00,VWS V14.01,2013-02-24 14:54:00,
2013-02-24 09:55:00,41.2,30.7,27.11,NNE,22,2.9,3.8,66,0.00,,---,0.00,VWS V14.01,2013-02-24 14:55:00,
2013-02-24 09:56:00,41.4,30.9,27.11,NNE,22,2.7,3.8,66,0.00,,---,0.00,VWS V14.01,2013-02-24 14:56:00,
2013-02-24 09:58:00,41.4,30.9,27.11,ENE,68,2.0,3.6,66,0.00,,---,0.00,VWS V14.01,2013-02-24 14:58:00,
2013-02-24 10:00:00,41.7,30.5,27.11,ENE,68,3.8,3.8,64,0.00,,---,0.00,VWS V14.01,2013-02-24 15:00:00,
2013-02-24 10:02:00,41.9,31.0,27.11,East,90,1.6,3.8,65,0.00,,---,0.00,VWS V14.01,2013-02-24 15:02:00,
2013-02-24 10:04:00,42.1,30.4,27.11,ENE,68,3.1,4.3,63,0.00,,---,0.00,VWS V14.01,2013-02-24 15:04:00,
2013-02-24 10:05:00,42.3,30.6,27.11,NE,45,3.6,3.8,63,0.00,,---,0.00,VWS V14.01,2013-02-24 15:05:00,
2013-02-24 10:06:00,42.3,30.2,27.11,East,90,1.3,3.8,62,0.00,,---,0.00,VWS V14.01,2013-02-24 15:06:00,
2013-02-24 10:08:00,42.4,30.4,27.11,NE,45,1.1,2.0,62,0.00,,---,0.00,VWS V14.01,2013-02-24 15:08:00,
2013-02-24 10:10:00,42.4,27.0,27.11,NNW,338,1.1,2.0,54,0.00,,---,0.00,VWS V14.01,2013-02-24 15:10:00,
2013-02-24 10:12:00,43.0,27.9,27.11,NNE,22,3.8,3.8,55,0.00,,---,0.00,VWS V14.01,2013-02-24 15:12:00,
2013-02-24 10:14:00,42.8,27.8,27.11,East,90,2.0,3.8,55,0.00,,---,0.00,VWS V14.01,2013-02-24 15:14:00,
2013-02-24 10:15:00,43.2,28.1,27.11,North,0,1.1,2.0,55,0.00,,---,0.00,VWS V14.01,2013-02-24 15:15:00,
2013-02-24 10:16:00,43.2,28.1,27.11,ESE,112,2.2,2.2,55,0.00,,---,0.00,VWS V14.01,2013-02-24 15:16:00,
2013-02-24 10:18:00,43.2,22.7,27.11,SSE,158,1.1,2.7,44,0.00,,---,0.00,VWS V14.01,2013-02-24 15:18:00,
2013-02-24 10:20:00,43.3,22.4,27.11,SE,135,1.1,2.9,43,0.00,,---,0.00,VWS V14.01,2013-02-24 15:20:00,
2013-02-24 10:22:00,43.7,26.8,27.11,ENE,68,1.3,3.4,51,0.00,,---,0.00,VWS V14.01,2013-02-24 15:22:00,
2013-02-24 10:24:00,43.9,26.0,27.11,NNE,22,2.0,3.4,49,0.00,,---,0.00,VWS V14.01,2013-02-24 15:24:00,
2013-02-24 10:25:00,44.2,27.3,27.11,NE,45,3.8,4.3,51,0.00,,---,0.00,VWS V14.01,2013-02-24 15:25:00,
2013-02-24 10:26:00,44.4,27.4,27.11,East,90,2.5,4.3,51,0.00,,---,0.00,VWS V14.01,2013-02-24 15:26:00,
2013-02-24 10:28:00,44.6,26.6,27.11,WNW,292,0.9,2.9,49,0.00,,---,0.00,VWS V14.01,2013-02-24 15:28:00,
2013-02-24 10:30:00,45.1,28.6,27.11,NE,45,2.0,2.5,52,0.00,,---,0.00,VWS V14.01,2013-02-24 15:30:00,
2013-02-24 10:32:00,45.3,28.3,27.11,NE,45,1.6,3.8,51,0.00,,---,0.00,VWS V14.01,2013-02-24 15:32:00,
2013-02-24 10:34:00,45.5,23.8,27.11,North,0,3.1,4.9,42,0.00,,---,0.00,VWS V14.01,2013-02-24 15:34:00,
2013-02-24 10:35:00,45.9,26.8,27.11,ENE,68,2.7,3.4,47,0.00,,---,0.00,VWS V14.01,2013-02-24 15:35:00,
2013-02-24 10:36:00,45.9,27.3,27.11,NE,45,1.3,3.4,48,0.00,,---,0.00,VWS V14.01,2013-02-24 15:36:00,
2013-02-24 10:38:00,45.9,27.3,27.11,NNE,22,3.4,5.4,48,0.00,,---,0.00,VWS V14.01,2013-02-24 15:38:00,
2013-02-24 10:40:00,46.0,27.5,27.11,North,0,1.1,2.0,48,0.00,,---,0.00,VWS V14.01,2013-02-24 15:40:00,
2013-02-24 10:42:00,46.2,27.1,27.11,ESE,112,2.5,4.0,47,0.00,,---,0.00,VWS V14.01,2013-02-24 15:42:00,
2013-02-24 10:44:00,46.4,27.8,27.11,NE,45,3.4,3.4,48,0.00,,---,0.00,VWS V14.01,2013-02-24 15:44:00,
2013-02-24 10:45:00,46.4,24.0,27.11,NNE,22,4.7,4.7,41,0.00,,---,0.00,VWS V14.01,2013-02-24 15:45:00,
2013-02-24 10:46:00,46.4,24.0,27.11,East,90,4.0,4.7,41,0.00,,---,0.00,VWS V14.01,2013-02-24 15:46:00,
2013-02-24 10:48:00,46.8,26.0,27.11,ENE,68,4.3,5.4,44,0.00,,---,0.00,VWS V14.01,2013-02-24 15:48:00,
2013-02-24 10:50:00,46.8,26.6,27.11,ENE,68,3.4,4.3,45,0.00,,---,0.00,VWS V14.01,2013-02-24 15:50:00,
2013-02-24 10:52:00,47.1,26.3,27.11,East,90,3.4,3.4,44,0.00,,---,0.00,VWS V14.01,2013-02-24 15:52:00,
2013-02-24 10:54:00,47.3,26.5,27.11,ESE,112,4.0,4.0,44,0.00,,---,0.00,VWS V14.01,2013-02-24 15:54:00,
2013-02-24 10:55:00,47.5,25.0,27.11,East,90,2.5,4.0,41,0.00,,---,0.00,VWS V14.01,2013-02-24 15:55:00,
2013-02-24 10:56:00,47.3,24.2,27.11,SSE,158,1.6,4.0,40,0.00,,---,0.00,VWS V14.01,2013-02-24 15:56:00,
2013-02-24 10:58:00,47.5,25.0,27.11,ENE,68,2.7,3.8,41,0.00,,---,0.00,VWS V14.01,2013-02-24 15:58:00,
2013-02-24 11:00:00,47.5,23.2,27.11,NW,315,2.5,2.5,38,0.00,,---,0.00,VWS V14.01,2013-02-24 16:00:00,
2013-02-24 11:02:00,47.5,23.2,27.11,NNW,338,2.5,2.5,38,0.00,,---,0.00,VWS V14.01,2013-02-24 16:02:00,
2013-02-24 11:04:00,47.5,21.2,27.11,WNW,292,2.5,3.6,35,0.00,,---,0.00,VWS V14.01,2013-02-24 16:04:00,
2013-02-24 11:05:00,47.5,21.2,27.11,SSW,202,1.6,2.5,35,0.00,,---,0.00,VWS V14.01,2013-02-24 16:05:00,
2013-02-24 11:06:00,47.3,20.4,27.11,West,270,0.9,2.5,34,0.00,,---,0.00,VWS V14.01,2013-02-24 16:06:00,
2013-02-24 11:08:00,47.5,23.2,27.11,NNW,338,2.2,2.5,38,0.00,,---,0.00,VWS V14.01,2013-02-24 16:08:00,
2013-02-24 11:10:00,47.8,24.1,27.11,ENE,68,2.5,2.7,39,0.00,,---,0.00,VWS V14.01,2013-02-24 16:10:00,
2013-02-24 11:12:00,47.8,24.1,27.11,ENE,68,4.0,4.0,39,0.00,,---,0.00,VWS V14.01,2013-02-24 16:12:00,
2013-02-24 11:14:00,48.2,23.2,27.11,SE,135,2.9,4.0,37,0.00,,---,0.00,VWS V14.01,2013-02-24 16:14:00,
2013-02-24 11:15:00,48.4,24.0,27.11,ENE,68,1.1,2.9,38,0.00,,---,0.00,VWS V14.01,2013-02-24 16:15:00,
2013-02-24 11:16:00,48.4,24.0,27.11,SE,135,1.3,2.9,38,0.00,,---,0.00,VWS V14.01,2013-02-24 16:16:00,
2013-02-24 11:18:00,48.7,23.6,27.11,NNW,338,2.0,3.1,37,0.00,,---,0.00,VWS V14.01,2013-02-24 16:18:00,
2013-02-24 11:20:00,48.6,20.8,27.11,NNW,338,1.3,1.3,33,0.00,,---,0.00,VWS V14.01,2013-02-24 16:20:00,
2013-02-24 11:22:00,48.6,19.3,27.11,NNW,338,1.1,1.6,31,0.00,,---,0.00,VWS V14.01,2013-02-24 16:22:00,
2013-02-24 11:24:00,48.7,20.9,27.11,North,0,2.0,3.4,33,0.00,,---,0.00,VWS V14.01,2013-02-24 16:24:00,
2013-02-24 11:25:00,48.7,21.6,27.11,North,0,3.4,5.4,34,0.00,,---,0.00,VWS V14.01,2013-02-24 16:25:00,
2013-02-24 11:26:00,48.7,19.5,27.11,NNW,338,3.4,5.4,31,0.00,,---,0.00,VWS V14.01,2013-02-24 16:26:00,
2013-02-24 11:28:00,48.7,21.6,27.11,NNE,22,2.0,4.3,34,0.00,,---,0.00,VWS V14.01,2013-02-24 16:28:00,
2013-02-24 11:30:00,48.6,17.8,27.11,SSW,202,2.7,3.1,29,0.00,,---,0.00,VWS V14.01,2013-02-24 16:30:00,
2013-02-24 11:32:00,48.6,17.8,27.11,SSE,158,2.0,3.1,29,0.00,,---,0.00,VWS V14.01,2013-02-24 16:32:00,
2013-02-24 11:34:00,48.9,20.4,27.11,NE,45,0.0,4.0,32,0.00,,---,0.00,VWS V14.01,2013-02-24 16:34:00,
2013-02-24 11:35:00,48.9,19.6,27.11,WSW,248,4.3,4.3,31,0.00,,---,0.00,VWS V14.01,2013-02-24 16:35:00,
2013-02-24 11:36:00,48.4,17.6,27.11,SSW,202,3.8,4.3,29,0.00,,---,0.00,VWS V14.01,2013-02-24 16:36:00,
2013-02-24 11:38:00,48.2,18.2,27.11,WSW,248,2.7,4.3,30,0.00,,---,0.00,VWS V14.01,2013-02-24 16:38:00,
2013-02-24 11:40:00,48.2,19.0,27.11,South,180,2.9,3.4,31,0.00,,---,0.00,VWS V14.01,2013-02-24 16:40:00,
2013-02-24 11:42:00,48.7,19.5,27.11,SE,135,3.6,3.6,31,0.00,,---,0.00,VWS V14.01,2013-02-24 16:42:00,
2013-02-24 11:44:00,53.4,20.3,27.08,NE,45,3.6,5.6,27,0.00,,---,0.00,VWS V14.01,2013-02-24 16:44:00,
2013-02-24 11:45:00,49.5,23.0,27.11,NE,45,2.5,3.6,35,0.00,,---,0.00,VWS V14.01,2013-02-24 16:45:00,
2013-02-24 11:46:00,49.5,23.0,27.11,ENE,68,2.2,3.6,35,0.00,,---,0.00,VWS V14.01,2013-02-24 16:46:00,
2013-02-24 11:48:00,50.5,20.3,27.11,NNW,338,3.1,3.4,30,0.00,,---,0.00,VWS V14.01,2013-02-24 16:48:00,
2013-02-24 11:50:00,50.5,19.5,27.11,West,270,3.8,3.8,29,0.00,,---,0.00,VWS V14.01,2013-02-24 16:50:00,
2013-02-24 11:52:00,50.4,20.1,27.11,WSW,248,2.5,3.8,30,0.00,,---,0.00,VWS V14.01,2013-02-24 16:52:00,
2013-02-24 11:54:00,50.2,18.4,27.11,NNW,338,1.1,2.5,28,0.00,,---,0.00,VWS V14.01,2013-02-24 16:54:00,
2013-02-24 11:55:00,50.5,18.7,27.11,NNW,338,3.6,3.6,28,0.00,,---,0.00,VWS V14.01,2013-02-24 16:55:00,
2013-02-24 11:56:00,50.7,18.8,27.11,NNW,338,2.7,3.6,28,0.00,,---,0.00,VWS V14.01,2013-02-24 16:56:00,
2013-02-24 11:58:00,50.7,18.8,27.11,North,0,2.5,4.7,28,0.00,,---,0.00,VWS V14.01,2013-02-24 16:58:00,
2013-02-24 12:00:00,50.5,18.7,27.11,ESE,112,2.5,2.5,28,0.00,,---,0.00,VWS V14.01,2013-02-24 17:00:00,
2013-02-24 12:02:00,50.5,18.7,27.11,SSE,158,2.5,2.5,28,0.00,,---,0.00,VWS V14.01,2013-02-24 17:02:00,
2013-02-24 12:04:00,50.5,18.7,27.11,SSE,158,4.0,4.3,28,0.00,,---,0.00,VWS V14.01,2013-02-24 17:04:00,
2013-02-24 12:05:00,50.5,18.7,27.11,South,180,1.1,4.3,28,0.00,,---,0.00,VWS V14.01,2013-02-24 17:05:00,
2013-02-24 12:06:00,50.7,18.0,27.11,SSW,202,2.0,4.3,27,0.00,,---,0.00,VWS V14.01,2013-02-24 17:06:00,
2013-02-24 12:08:00,50.5,17.8,27.11,SW,225,2.7,2.9,27,0.00,,---,0.00,VWS V14.01,2013-02-24 17:08:00,
2013-02-24 12:10:00,50.5,17.8,27.11,WSW,248,2.7,2.7,27,0.00,,---,0.00,VWS V14.01,2013-02-24 17:10:00,
2013-02-24 12:12:00,51.1,18.3,27.11,ESE,112,1.3,2.7,27,0.00,,---,0.00,VWS V14.01,2013-02-24 17:12:00,
2013-02-24 12:14:00,51.4,19.4,27.11,NNE,22,1.1,4.0,28,0.00,,---,0.00,VWS V14.01,2013-02-24 17:14:00,
2013-02-24 12:15:00,51.6,20.4,27.11,ESE,112,3.8,3.8,29,0.00,,---,0.00,VWS V14.01,2013-02-24 17:15:00,
2013-02-24 12:16:00,51.6,20.4,27.11,SE,135,2.0,3.8,29,0.00,,---,0.00,VWS V14.01,2013-02-24 17:16:00,
2013-02-24 12:18:00,52.0,20.7,27.11,North,0,1.3,2.9,29,0.00,,---,0.00,VWS V14.01,2013-02-24 17:18:00,
2013-02-24 12:20:00,52.5,20.4,27.11,NNW,338,3.1,3.1,28,0.00,,---,0.00,VWS V14.01,2013-02-24 17:20:00,
2013-02-24 12:22:00,52.5,19.5,27.11,NNE,22,0.0,4.3,27,0.00,,---,0.00,VWS V14.01,2013-02-24 17:22:00,
2013-02-24 12:24:00,52.7,19.7,27.11,ESE,112,4.0,4.0,27,0.00,,---,0.00,VWS V14.01,2013-02-24 17:24:00,
2013-02-24 12:25:00,52.5,19.5,27.11,East,90,3.4,4.0,27,0.00,,---,0.00,VWS V14.01,2013-02-24 17:25:00,
2013-02-24 12:26:00,52.5,19.5,27.11,SSE,158,2.9,4.0,27,0.00,,---,0.00,VWS V14.01,2013-02-24 17:26:00,
2013-02-24 12:28:00,52.7,20.5,27.11,ENE,68,3.6,3.6,28,0.00,,---,0.00,VWS V14.01,2013-02-24 17:28:00,
2013-02-24 12:30:00,53.1,20.0,27.11,North,0,4.9,4.9,27,0.00,,---,0.00,VWS V14.01,2013-02-24 17:30:00,
2013-02-24 12:32:00,53.1,20.0,27.11,NE,45,6.0,7.4,27,0.00,,---,0.00,VWS V14.01,2013-02-24 17:32:00,
2013-02-24 12:34:00,53.2,19.3,27.08,North,0,4.9,7.4,26,0.00,,---,0.00,VWS V14.01,2013-02-24 17:34:00,
2013-02-24 12:35:00,53.2,19.3,27.08,NNW,338,5.6,5.6,26,0.00,,---,0.00,VWS V14.01,2013-02-24 17:35:00,
2013-02-24 12:36:00,53.2,19.3,27.08,NNE,22,3.1,5.6,26,0.00,,---,0.00,VWS V14.01,2013-02-24 17:36:00,
2013-02-24 12:38:00,53.2,20.1,27.08,ENE,68,4.0,6.3,27,0.00,,---,0.00,VWS V14.01,2013-02-24 17:38:00,
2013-02-24 12:40:00,53.4,19.4,27.08,NE,45,5.4,6.0,26,0.00,,---,0.00,VWS V14.01,2013-02-24 17:40:00,
2013-02-24 12:42:00,53.4,20.3,27.08,ENE,68,2.9,6.5,27,0.00,,---,0.00,VWS V14.01,2013-02-24 17:42:00,
2013-02-24 12:44:00,53.4,20.3,27.08,NE,45,3.6,5.6,27,0.00,,---,0.00,VWS V14.01,2013-02-24 17:44:00,
2013-02-24 12:45:00,53.4,20.3,27.08,NE,45,4.0,7.6,27,0.00,,---,0.00,VWS V14.01,2013-02-24 17:45:00,
2013-02-24 12:46:00,53.6,19.6,27.08,ENE,68,2.9,7.6,26,0.00,,---,0.00,VWS V14.01,2013-02-24 17:46:00,
2013-02-24 12:48:00,54.0,19.9,27.08,ENE,68,6.5,6.5,26,0.00,,---,0.00,VWS V14.01,2013-02-24 17:48:00,
2013-02-24 12:50:00,54.3,20.2,27.08,NNE,22,3.4,6.5,26,0.00,,---,0.00,VWS V14.01,2013-02-24 17:50:00,
2013-02-24 12:52:00,54.5,20.3,27.08,East,90,3.6,9.4,26,0.00,,---,0.00,VWS V14.01,2013-02-24 17:52:00,
2013-02-24 12:54:00,54.5,20.3,27.08,NE,45,7.4,7.4,26,0.00,,---,0.00,VWS V14.01,2013-02-24 17:54:00,
2013-02-24 12:55:00,54.7,20.5,27.08,NE,45,3.8,7.4,26,0.00,,---,0.00,VWS V14.01,2013-02-24 17:55:00,
2013-02-24 12:56:00,54.9,20.6,27.08,NE,45,2.7,7.4,26,0.00,,---,0.00,VWS V14.01,2013-02-24 17:56:00,
2013-02-24 12:58:00,55.0,20.8,27.08,NE,45,6.7,6.7,26,0.00,,---,0.00,VWS V14.01,2013-02-24 17:58:00,
2013-02-24 13:00:00,55.2,21.0,27.08,NNE,22,5.8,6.7,26,0.00,,---,0.00,VWS V14.01,2013-02-24 18:00:00,
2013-02-24 13:02:00,55.2,21.0,27.08,East,90,5.6,6.7,26,0.00,,---,0.00,VWS V14.01,2013-02-24 18:02:00,
2013-02-24 13:04:00,55.2,21.0,27.08,East,90,4.3,7.6,26,0.00,,---,0.00,VWS V14.01,2013-02-24 18:04:00,
2013-02-24 13:05:00,55.2,21.0,27.08,ENE,68,3.8,7.6,26,0.00,,---,0.00,VWS V14.01,2013-02-24 18:05:00,
2013-02-24 13:06:00,55.2,21.0,27.08,NE,45,3.8,7.6,26,0.00,,---,0.00,VWS V14.01,2013-02-24 18:06:00,
2013-02-24 13:08:00,55.4,20.2,27.08,East,90,3.6,4.9,25,0.00,,---,0.00,VWS V14.01,2013-02-24 18:08:00,
2013-02-24 13:10:00,55.6,20.3,27.08,ENE,68,3.8,3.8,25,0.00,,---,0.00,VWS V14.01,2013-02-24 18:10:00,
2013-02-24 13:12:00,55.9,20.6,27.08,East,90,6.3,6.3,25,0.00,,---,0.00,VWS V14.01,2013-02-24 18:12:00,
2013-02-24 13:14:00,55.9,20.6,27.08,ENE,68,5.8,6.3,25,0.00,,---,0.00,VWS V14.01,2013-02-24 18:14:00,
2013-02-24 13:15:00,56.1,20.8,27.08,ENE,68,3.4,5.8,25,0.00,,---,0.00,VWS V14.01,2013-02-24 18:15:00,
2013-02-24 13:16:00,56.1,20.8,27.08,ENE,68,6.5,6.5,25,0.00,,---,0.00,VWS V14.01,2013-02-24 18:16:00,
2013-02-24 13:18:00,56.3,21.0,27.08,NE,45,4.3,6.5,25,0.00,,---,0.00,VWS V14.01,2013-02-24 18:18:00,
2013-02-24 13:20:00,56.5,21.1,27.08,NE,45,3.6,4.0,25,0.00,,---,0.00,VWS V14.01,2013-02-24 18:20:00,
2013-02-24 13:22:00,56.7,21.3,27.08,East,90,4.9,4.9,25,0.00,,---,0.00,VWS V14.01,2013-02-24 18:22:00,
2013-02-24 13:24:00,56.7,18.3,27.08,ESE,112,3.1,6.0,22,0.00,,---,0.00,VWS V14.01,2013-02-24 18:24:00,
2013-02-24 13:25:00,56.5,18.1,27.08,East,90,4.9,6.5,22,0.00,,---,0.00,VWS V14.01,2013-02-24 18:25:00,
2013-02-24 13:26:00,56.5,21.1,27.08,East,90,4.0,6.5,25,0.00,,---,0.00,VWS V14.01,2013-02-24 18:26:00,
2013-02-24 13:28:00,56.5,21.1,27.08,East,90,4.3,7.8,25,0.00,,---,0.00,VWS V14.01,2013-02-24 18:28:00,
2013-02-24 13:30:00,56.3,21.0,27.08,ENE,68,8.1,8.1,25,0.00,,---,0.00,VWS V14.01,2013-02-24 18:30:00,
2013-02-24 13:32:00,56.1,17.8,27.08,ESE,112,5.4,8.1,22,0.00,,---,0.00,VWS V14.01,2013-02-24 18:32:00,
2013-02-24 13:34:00,55.8,17.5,27.08,ENE,68,6.0,7.4,22,0.00,,---,0.00,VWS V14.01,2013-02-24 18:34:00,
2013-02-24 13:35:00,55.6,17.4,27.08,East,90,2.9,6.0,22,0.00,,---,0.00,VWS V14.01,2013-02-24 18:35:00,
2013-02-24 13:36:00,55.6,17.4,27.08,NE,45,3.8,6.0,22,0.00,,---,0.00,VWS V14.01,2013-02-24 18:36:00,
2013-02-24 13:38:00,55.6,17.4,27.08,ENE,68,4.0,4.0,22,0.00,,---,0.00,VWS V14.01,2013-02-24 18:38:00,
2013-02-24 13:40:00,55.9,17.7,27.08,East,90,6.0,6.0,22,0.00,,---,0.00,VWS V14.01,2013-02-24 18:40:00,
2013-02-24 13:42:00,56.3,18.0,27.08,NE,45,6.3,6.3,22,0.00,,---,0.00,VWS V14.01,2013-02-24 18:42:00,
2013-02-24 13:44:00,56.3,18.0,27.08,NNE,22,6.5,7.8,22,0.00,,---,0.00,VWS V14.01,2013-02-24 18:44:00,
2013-02-24 13:45:00,56.3,18.0,27.08,NE,45,4.0,7.4,22,0.00,,---,0.00,VWS V14.01,2013-02-24 18:45:00,
2013-02-24 13:46:00,56.3,18.0,27.08,ENE,68,5.6,7.4,22,0.00,,---,0.00,VWS V14.01,2013-02-24 18:46:00,
2013-02-24 13:48:00,56.3,18.0,27.08,ESE,112,6.7,8.5,22,0.00,,---,0.00,VWS V14.01,2013-02-24 18:48:00,
2013-02-24 13:50:00,56.1,15.6,27.08,ENE,68,7.4,7.4,20,0.00,,---,0.00,VWS V14.01,2013-02-24 18:50:00,
2013-02-24 13:52:00,55.9,15.5,27.08,NE,45,7.8,8.1,20,0.00,,---,0.00,VWS V14.01,2013-02-24 18:52:00,
2013-02-24 13:54:00,55.9,15.5,27.08,East,90,6.0,8.7,20,0.00,,---,0.00,VWS V14.01,2013-02-24 18:54:00,
2013-02-24 13:55:00,55.9,17.7,27.08,NE,45,3.8,6.3,22,0.00,,---,0.00,VWS V14.01,2013-02-24 18:55:00,
2013-02-24 13:56:00,55.9,17.7,27.08,ESE,112,6.7,10.3,22,0.00,,---,0.00,VWS V14.01,2013-02-24 18:56:00,
2013-02-24 13:58:00,55.8,15.3,27.08,NNE,22,4.3,6.7,20,0.00,,---,0.00,VWS V14.01,2013-02-24 18:58:00,
2013-02-24 14:00:00,55.9,17.7,27.08,East,90,4.0,4.0,22,0.00,,---,0.00,VWS V14.01,2013-02-24 19:00:00,
2013-02-24 14:02:00,56.3,18.0,27.08,East,90,4.9,6.5,22,0.00,,---,0.00,VWS V14.01,2013-02-24 19:02:00,
2013-02-24 14:04:00,56.7,16.1,27.08,NE,45,4.9,8.5,20,0.00,,---,0.00,VWS V14.01,2013-02-24 19:04:00,
2013-02-24 14:05:00,56.8,18.4,27.08,ENE,68,6.5,7.8,22,0.00,,---,0.00,VWS V14.01,2013-02-24 19:05:00,
2013-02-24 14:06:00,56.8,18.4,27.08,East,90,3.8,7.8,22,0.00,,---,0.00,VWS V14.01,2013-02-24 19:06:00,
2013-02-24 14:08:00,57.0,18.6,27.08,SSE,158,5.8,7.4,22,0.00,,---,0.00,VWS V14.01,2013-02-24 19:08:00,
2013-02-24 14:10:00,57.2,15.3,27.08,NE,45,5.4,5.4,19,0.00,,---,0.00,VWS V14.01,2013-02-24 19:10:00,
2013-02-24 14:12:00,57.2,15.3,27.08,NE,45,4.3,7.8,19,0.00,,---,0.00,VWS V14.01,2013-02-24 19:12:00,
2013-02-24 14:14:00,57.2,15.3,27.08,ENE,68,5.6,8.7,19,0.00,,---,0.00,VWS V14.01,2013-02-24 19:14:00,
2013-02-24 14:15:00,57.2,15.3,27.08,East,90,7.2,7.2,19,0.00,,---,0.00,VWS V14.01,2013-02-24 19:15:00,
2013-02-24 14:16:00,57.2,15.3,27.08,NE,45,5.4,7.8,19,0.00,,---,0.00,VWS V14.01,2013-02-24 19:16:00,
2013-02-24 14:18:00,57.2,15.3,27.08,ENE,68,6.5,6.5,19,0.00,,---,0.00,VWS V14.01,2013-02-24 19:18:00,
2013-02-24 14:20:00,57.4,15.5,27.08,ENE,68,3.4,4.3,19,0.00,,---,0.00,VWS V14.01,2013-02-24 19:20:00,
2013-02-24 14:22:00,57.6,15.6,27.08,ENE,68,5.8,6.5,19,0.00,,---,0.00,VWS V14.01,2013-02-24 19:22:00,
2013-02-24 14:24:00,57.7,15.8,27.08,NE,45,6.5,6.5,19,0.00,,---,0.00,VWS V14.01,2013-02-24 19:24:00,
2013-02-24 14:25:00,57.9,15.9,27.08,ENE,68,4.0,6.7,19,0.00,,---,0.00,VWS V14.01,2013-02-24 19:25:00,
2013-02-24 14:26:00,57.9,15.9,27.08,ENE,68,5.8,6.7,19,0.00,,---,0.00,VWS V14.01,2013-02-24 19:26:00,
2013-02-24 14:28:00,57.9,15.9,27.08,ENE,68,3.6,9.6,19,0.00,,---,0.00,VWS V14.01,2013-02-24 19:28:00,
2013-02-24 14:30:00,57.7,15.8,27.08,ENE,68,5.6,7.6,19,0.00,,---,0.00,VWS V14.01,2013-02-24 19:30:00,
2013-02-24 14:32:00,57.7,15.8,27.08,ENE,68,4.3,7.6,19,0.00,,---,0.00,VWS V14.01,2013-02-24 19:32:00,
2013-02-24 14:34:00,57.9,15.9,27.05,NNE,22,5.8,7.6,19,0.00,,---,0.00,VWS V14.01,2013-02-24 19:34:00,
2013-02-24 14:35:00,57.9,15.9,27.05,NE,45,5.6,6.3,19,0.00,,---,0.00,VWS V14.01,2013-02-24 19:35:00,
2013-02-24 14:36:00,57.9,15.9,27.05,NE,45,4.3,6.5,19,0.00,,---,0.00,VWS V14.01,2013-02-24 19:36:00,
2013-02-24 14:38:00,58.1,16.1,27.05,NNE,22,5.4,5.8,19,0.00,,---,23.18,VWS V14.01,2013-02-24 19:38:00,
2013-02-24 14:40:00,58.1,16.1,27.05,East,90,5.8,5.8,19,0.00,,---,23.18,VWS V14.01,2013-02-24 19:40:00,
2013-02-24 14:42:00,58.3,16.2,27.05,ENE,68,3.4,6.5,19,0.00,,---,23.18,VWS V14.01,2013-02-24 19:42:00,
2013-02-24 14:44:00,58.1,16.1,27.05,East,90,7.2,8.5,19,0.00,,---,23.18,VWS V14.01,2013-02-24 19:44:00,
2013-02-24 14:45:00,58.1,16.1,27.05,East,90,4.0,7.6,19,0.00,,---,23.18,VWS V14.01,2013-02-24 19:45:00,
2013-02-24 14:46:00,58.1,16.1,27.05,NNE,22,8.1,9.8,19,0.00,,---,23.18,VWS V14.01,2013-02-24 19:46:00,
2013-02-24 14:48:00,57.9,15.9,27.08,East,90,4.3,8.1,19,0.00,,---,23.18,VWS V14.01,2013-02-24 19:48:00,
2013-02-24 14:50:00,57.9,15.9,27.08,East,90,6.3,7.2,19,0.00,,---,23.18,VWS V14.01,2013-02-24 19:50:00,
2013-02-24 14:52:00,57.9,15.9,27.08,NE,45,7.8,7.8,19,0.00,,---,23.18,VWS V14.01,2013-02-24 19:52:00,
2013-02-24 14:54:00,57.9,15.9,27.08,East,90,6.5,8.5,19,0.00,,---,23.18,VWS V14.01,2013-02-24 19:54:00,
2013-02-24 14:55:00,57.9,15.9,27.08,ENE,68,7.2,7.2,19,0.00,,---,23.18,VWS V14.01,2013-02-24 19:55:00,
2013-02-24 14:56:00,57.9,15.9,27.08,ENE,68,7.2,7.2,19,0.00,,---,23.18,VWS V14.01,2013-02-24 19:56:00,
2013-02-24 14:58:00,57.9,15.9,27.08,East,90,4.3,7.2,19,0.00,,---,23.18,VWS V14.01,2013-02-24 19:58:00,
2013-02-24 15:00:00,57.9,15.9,27.08,East,90,2.7,5.8,19,0.00,,---,23.18,VWS V14.01,2013-02-24 20:00:00,
2013-02-24 15:02:00,57.9,15.9,27.08,NE,45,7.4,7.6,19,0.00,,---,23.18,VWS V14.01,2013-02-24 20:02:00,
2013-02-24 15:04:00,58.1,16.1,27.08,ENE,68,3.6,7.4,19,0.00,,---,23.18,VWS V14.01,2013-02-24 20:04:00,
2013-02-24 15:05:00,58.1,16.1,27.08,NNE,22,4.3,6.3,19,0.00,,---,23.18,VWS V14.01,2013-02-24 20:05:00,
2013-02-24 15:06:00,58.1,16.1,27.08,ENE,68,6.3,7.4,19,0.00,,---,23.18,VWS V14.01,2013-02-24 20:06:00,
2013-02-24 15:08:00,57.9,13.4,27.08,East,90,7.8,9.8,17,0.00,,---,23.18,VWS V14.01,2013-02-24 20:08:00,
2013-02-24 15:10:00,57.7,15.8,27.08,ESE,112,6.3,6.3,19,0.00,,---,23.18,VWS V14.01,2013-02-24 20:10:00,
2013-02-24 15:12:00,57.7,15.8,27.08,East,90,8.1,10.3,19,0.00,,---,23.18,VWS V14.01,2013-02-24 20:12:00,
2013-02-24 15:14:00,57.4,12.9,27.08,NE,45,6.0,8.1,17,0.00,,---,23.18,VWS V14.01,2013-02-24 20:14:00,
2013-02-24 15:15:00,57.4,15.5,27.08,ENE,68,4.9,6.0,19,0.00,,---,23.18,VWS V14.01,2013-02-24 20:15:00,
2013-02-24 15:16:00,57.4,15.5,27.08,ENE,68,6.9,6.9,19,0.00,,---,23.18,VWS V14.01,2013-02-24 20:16:00,
2013-02-24 15:18:00,57.4,12.9,27.08,East,90,7.4,13.2,17,0.00,,---,23.18,VWS V14.01,2013-02-24 20:18:00,
2013-02-24 15:20:00,57.4,12.9,27.08,East,90,8.5,9.6,17,0.00,,---,23.18,VWS V14.01,2013-02-24 20:20:00,
2013-02-24 15:22:00,56.8,16.2,27.08,ENE,68,7.4,7.4,20,0.00,,---,23.18,VWS V14.01,2013-02-24 20:22:00,
2013-02-24 15:24:00,56.8,12.5,27.08,East,90,6.0,8.1,17,0.00,,---,23.18,VWS V14.01,2013-02-24 20:24:00,
2013-02-24 15:25:00,56.8,12.5,27.08,East,90,7.8,9.6,17,0.00,,---,23.18,VWS V14.01,2013-02-24 20:25:00,
2013-02-24 15:26:00,56.8,12.5,27.08,ENE,68,9.0,9.6,17,0.00,,---,23.18,VWS V14.01,2013-02-24 20:26:00,
2013-02-24 15:28:00,56.8,12.5,27.08,ENE,68,6.5,9.0,17,0.00,,---,23.18,VWS V14.01,2013-02-24 20:28:00,
2013-02-24 15:30:00,56.8,12.5,27.08,ENE,68,5.8,8.1,17,0.00,,---,23.18,VWS V14.01,2013-02-24 20:30:00,
2013-02-24 15:32:00,56.7,12.4,27.08,East,90,8.5,10.3,17,0.00,,---,23.18,VWS V14.01,2013-02-24 20:32:00,
2013-02-24 15:34:00,56.5,12.2,27.11,ENE,68,6.0,8.5,17,0.00,,---,23.18,VWS V14.01,2013-02-24 20:34:00,
2013-02-24 15:35:00,56.5,12.2,27.11,ESE,112,5.6,6.0,17,0.00,,---,23.18,VWS V14.01,2013-02-24 20:35:00,
2013-02-24 15:36:00,56.3,12.1,27.11,East,90,7.6,8.5,17,0.00,,---,23.18,VWS V14.01,2013-02-24 20:36:00,
2013-02-24 15:38:00,56.3,12.1,27.11,East,90,6.3,10.1,17,0.00,,---,23.18,VWS V14.01,2013-02-24 20:38:00,
2013-02-24 15:40:00,56.3,12.1,27.11,ENE,68,6.3,6.3,17,0.00,,---,23.18,VWS V14.01,2013-02-24 20:40:00,
2013-02-24 15:42:00,56.1,11.9,27.11,East,90,4.9,7.8,17,0.00,,---,23.18,VWS V14.01,2013-02-24 20:42:00,
2013-02-24 15:44:00,56.3,12.1,27.11,East,90,5.6,6.0,17,0.00,,---,23.18,VWS V14.01,2013-02-24 20:44:00,
2013-02-24 15:45:00,56.3,12.1,27.11,ENE,68,7.6,7.8,17,0.00,,---,23.18,VWS V14.01,2013-02-24 20:45:00,
2013-02-24 15:46:00,56.3,12.1,27.11,ENE,68,8.7,8.7,17,0.00,,---,23.18,VWS V14.01,2013-02-24 20:46:00,
2013-02-24 15:48:00,56.3,12.1,27.11,NE,45,5.4,8.7,17,0.00,,---,23.18,VWS V14.01,2013-02-24 20:48:00,
2013-02-24 15:50:00,56.1,11.9,27.05,ENE,68,4.7,5.4,17,0.00,,---,23.18,VWS V14.01,2013-02-24 20:50:00,
2013-02-24 15:52:00,56.1,11.9,27.05,ESE,112,3.1,8.1,17,0.00,,---,23.18,VWS V14.01,2013-02-24 20:52:00,
2013-02-24 15:54:00,56.1,11.9,27.05,ENE,68,4.9,6.3,17,0.00,,---,23.18,VWS V14.01,2013-02-24 20:54:00,
2013-02-24 15:55:00,56.1,11.9,27.05,ENE,68,4.9,7.6,17,0.00,,---,23.18,VWS V14.01,2013-02-24 20:55:00,
2013-02-24 15:56:00,56.3,12.1,27.05,NNE,22,3.1,7.6,17,0.00,,---,23.18,VWS V14.01,2013-02-24 20:56:00,
2013-02-24 15:58:00,56.3,12.1,27.05,NNE,22,4.0,7.8,17,0.00,,---,23.18,VWS V14.01,2013-02-24 20:58:00,
2013-02-24 16:00:00,56.3,12.1,27.05,ENE,68,4.3,4.3,17,0.00,,---,23.18,VWS V14.01,2013-02-24 21:00:00,
2013-02-24 16:02:00,56.3,12.1,27.05,ENE,68,3.8,5.4,17,0.00,,---,23.18,VWS V14.01,2013-02-24 21:02:00,
2013-02-24 16:04:00,56.3,12.1,27.08,ENE,68,3.8,8.5,17,0.00,,---,23.18,VWS V14.01,2013-02-24 21:04:00,
2013-02-24 16:05:00,56.3,12.1,27.08,NE,45,6.5,6.5,17,0.00,,---,23.18,VWS V14.01,2013-02-24 21:05:00,
2013-02-24 16:06:00,56.3,12.1,27.08,NE,45,4.0,6.5,17,0.00,,---,23.18,VWS V14.01,2013-02-24 21:06:00,
2013-02-24 16:08:00,56.3,12.1,27.08,NE,45,6.5,7.6,17,0.00,,---,23.18,VWS V14.01,2013-02-24 21:08:00,
2013-02-24 16:10:00,56.1,11.9,27.08,ENE,68,3.8,3.8,17,0.00,,---,23.18,VWS V14.01,2013-02-24 21:10:00,
2013-02-24 16:12:00,56.1,11.9,27.08,East,90,5.6,6.3,17,0.00,,---,23.18,VWS V14.01,2013-02-24 21:12:00,
2013-02-24 16:14:00,55.9,11.8,27.08,East,90,5.6,6.0,17,0.00,,---,23.18,VWS V14.01,2013-02-24 21:14:00,
2013-02-24 16:15:00,55.9,11.8,27.08,East,90,5.4,7.4,17,0.00,,---,23.18,VWS V14.01,2013-02-24 21:15:00,
2013-02-24 16:16:00,51.6,10.7,27.05,ENE,68,3.8,5.4,19,0.00,,---,23.18,VWS V14.01,2013-02-24 21:16:00,
2013-02-24 16:18:00,55.9,11.8,27.08,East,90,3.8,7.4,17,0.00,,---,23.18,VWS V14.01,2013-02-24 21:18:00,
2013-02-24 16:20:00,55.8,11.6,27.08,ENE,68,5.4,6.3,17,0.00,,---,23.18,VWS V14.01,2013-02-24 21:20:00,
2013-02-24 16:22:00,55.8,11.6,27.08,ENE,68,3.8,6.3,17,0.00,,---,23.18,VWS V14.01,2013-02-24 21:22:00,
2013-02-24 16:24:00,55.6,11.5,27.08,ENE,68,3.4,8.5,17,0.00,,---,23.18,VWS V14.01,2013-02-24 21:24:00,
2013-02-24 16:25:00,55.6,11.5,27.08,East,90,4.9,6.5,17,0.00,,---,23.18,VWS V14.01,2013-02-24 21:25:00,
2013-02-24 16:26:00,55.6,11.5,27.08,ENE,68,4.9,6.5,17,0.00,,---,23.18,VWS V14.01,2013-02-24 21:26:00,
2013-02-24 16:28:00,55.6,11.5,27.08,ESE,112,2.7,4.9,17,0.00,,---,23.18,VWS V14.01,2013-02-24 21:28:00,
2013-02-24 16:30:00,55.6,11.5,27.08,NE,45,4.9,5.8,17,0.00,,---,23.18,VWS V14.01,2013-02-24 21:30:00,
2013-02-24 16:32:00,55.4,11.3,27.08,East,90,4.9,5.8,17,0.00,,---,23.18,VWS V14.01,2013-02-24 21:32:00,
2013-02-24 16:34:00,55.4,11.3,27.08,NE,45,4.0,6.0,17,0.00,,---,23.18,VWS V14.01,2013-02-24 21:34:00,
2013-02-24 16:35:00,55.4,11.3,27.08,ENE,68,4.3,4.5,17,0.00,,---,23.18,VWS V14.01,2013-02-24 21:35:00,
2013-02-24 16:36:00,55.4,11.3,27.08,East,90,5.6,6.3,17,0.00,,---,23.18,VWS V14.01,2013-02-24 21:36:00,
2013-02-24 16:38:00,55.4,11.3,27.08,ENE,68,4.0,5.6,17,0.00,,---,23.18,VWS V14.01,2013-02-24 21:38:00,
2013-02-24 16:40:00,55.4,11.3,27.08,East,90,5.8,6.3,17,0.00,,---,23.18,VWS V14.01,2013-02-24 21:40:00,
2013-02-24 16:42:00,55.2,12.5,27.08,ENE,68,3.8,7.2,18,0.00,,---,23.18,VWS V14.01,2013-02-24 21:42:00,
2013-02-24 16:44:00,55.0,12.3,27.08,NNE,22,3.4,8.7,18,0.00,,---,23.18,VWS V14.01,2013-02-24 21:44:00,
2013-02-24 16:45:00,55.0,12.3,27.08,ENE,68,2.9,4.3,18,0.00,,---,23.18,VWS V14.01,2013-02-24 21:45:00,
2013-02-24 16:46:00,55.0,12.3,27.08,ENE,68,4.9,4.9,18,0.00,,---,23.18,VWS V14.01,2013-02-24 21:46:00,
2013-02-24 16:48:00,55.0,12.3,27.08,NNE,22,2.9,5.6,18,0.00,,---,23.18,VWS V14.01,2013-02-24 21:48:00,
2013-02-24 16:50:00,55.0,12.3,27.08,NE,45,4.7,4.7,18,0.00,,---,23.18,VWS V14.01,2013-02-24 21:50:00,
2013-02-24 16:52:00,54.9,12.2,27.08,NE,45,4.3,4.7,18,0.00,,---,23.18,VWS V14.01,2013-02-24 21:52:00,
2013-02-24 16:54:00,54.9,12.2,27.08,ESE,112,2.5,4.7,18,0.00,,---,23.18,VWS V14.01,2013-02-24 21:54:00,
2013-02-24 16:55:00,54.9,12.2,27.08,East,90,4.3,5.6,18,0.00,,---,23.18,VWS V14.01,2013-02-24 21:55:00,
2013-02-24 16:56:00,54.9,12.2,27.08,NE,45,5.6,5.6,18,0.00,,---,23.18,VWS V14.01,2013-02-24 21:56:00,
2013-02-24 16:58:00,54.7,12.0,27.08,ESE,112,6.0,6.5,18,0.00,,---,23.18,VWS V14.01,2013-02-24 21:58:00,
2013-02-24 17:00:00,54.5,11.9,27.08,NE,45,2.5,2.5,18,0.00,,---,23.18,VWS V14.01,2013-02-24 22:00:00,
2013-02-24 17:02:00,54.3,11.7,27.08,East,90,4.5,5.8,18,0.00,,---,23.18,VWS V14.01,2013-02-24 22:02:00,
2013-02-24 17:04:00,54.3,11.7,27.05,ENE,68,4.0,4.5,18,0.00,,---,23.18,VWS V14.01,2013-02-24 22:04:00,
2013-02-24 17:05:00,54.1,11.6,27.05,ENE,68,5.6,5.6,18,0.00,,---,23.18,VWS V14.01,2013-02-24 22:05:00,
2013-02-24 17:06:00,54.1,11.6,27.05,NE,45,6.3,6.3,18,0.00,,---,23.18,VWS V14.01,2013-02-24 22:06:00,
2013-02-24 17:08:00,54.0,11.4,27.05,ENE,68,4.0,6.3,18,0.00,,---,23.18,VWS V14.01,2013-02-24 22:08:00,
2013-02-24 17:10:00,53.8,11.3,27.05,ENE,68,4.0,4.0,18,0.00,,---,23.18,VWS V14.01,2013-02-24 22:10:00,
2013-02-24 17:12:00,53.1,10.7,27.05,ENE,68,3.4,4.0,18,0.00,,---,23.18,VWS V14.01,2013-02-24 22:12:00,
2013-02-24 17:14:00,44.2,8.8,27.11,NNE,22,0.9,1.6,23,0.00,,---,23.18,VWS V14.01,2013-02-24 22:14:00,
2013-02-24 17:15:00,52.0,9.8,27.05,ENE,68,3.4,5.4,18,0.00,,---,23.18,VWS V14.01,2013-02-24 22:15:00,
2013-02-24 17:16:00,51.6,10.7,27.05,ENE,68,3.8,5.4,19,0.00,,---,23.18,VWS V14.01,2013-02-24 22:16:00,
2013-02-24 17:18:00,51.1,10.3,27.05,ENE,68,3.1,4.3,19,0.00,,---,23.18,VWS V14.01,2013-02-24 22:18:00,
2013-02-24 17:20:00,50.4,9.7,27.05,East,90,2.7,2.7,19,0.00,,---,23.18,VWS V14.01,2013-02-24 22:20:00,
2013-02-24 17:22:00,50.0,9.4,27.05,ENE,68,3.6,5.4,19,0.00,,---,23.18,VWS V14.01,2013-02-24 22:22:00,
2013-02-24 17:24:00,49.5,8.9,27.05,East,90,6.0,6.0,19,0.00,,---,23.18,VWS V14.01,2013-02-24 22:24:00,
2013-02-24 17:25:00,49.3,8.8,27.05,ENE,68,3.4,6.0,19,0.00,,---,23.18,VWS V14.01,2013-02-24 22:25:00,
2013-02-24 17:26:00,49.1,8.6,27.05,East,90,2.5,6.0,19,0.00,,---,23.18,VWS V14.01,2013-02-24 22:26:00,
2013-02-24 17:28:00,48.7,8.3,27.05,East,90,2.9,4.0,19,0.00,,---,23.18,VWS V14.01,2013-02-24 22:28:00,
2013-02-24 17:30:00,48.6,8.2,27.05,NE,45,3.6,3.6,19,0.00,,---,23.18,VWS V14.01,2013-02-24 22:30:00,
2013-02-24 17:32:00,48.2,7.9,27.08,ENE,68,3.8,4.3,19,0.00,,---,23.18,VWS V14.01,2013-02-24 22:32:00,
2013-02-24 17:34:00,47.8,7.6,27.08,East,90,3.4,4.3,19,0.00,,---,23.18,VWS V14.01,2013-02-24 22:34:00,
2013-02-24 17:35:00,47.7,7.4,27.08,ENE,68,2.9,3.4,19,0.00,,---,23.18,VWS V14.01,2013-02-24 22:35:00,
2013-02-24 17:36:00,47.7,7.4,27.08,ENE,68,3.1,3.4,19,0.00,,---,23.18,VWS V14.01,2013-02-24 22:36:00,
2013-02-24 17:38:00,47.5,7.3,27.08,ENE,68,2.9,3.1,19,0.00,,---,23.18,VWS V14.01,2013-02-24 22:38:00,
2013-02-24 17:40:00,47.3,7.1,27.08,ENE,68,4.3,4.3,19,0.00,,---,23.18,VWS V14.01,2013-02-24 22:40:00,
2013-02-24 17:42:00,47.1,7.0,27.08,ESE,112,2.7,4.3,19,0.00,,---,23.18,VWS V14.01,2013-02-24 22:42:00,
2013-02-24 17:44:00,46.9,6.8,27.08,East,90,3.8,3.8,19,0.00,,---,23.18,VWS V14.01,2013-02-24 22:44:00,
2013-02-24 17:45:00,46.9,6.8,27.08,ESE,112,3.4,3.8,19,0.00,,---,23.18,VWS V14.01,2013-02-24 22:45:00,
2013-02-24 17:46:00,46.9,6.8,27.08,ENE,68,3.6,3.8,19,0.00,,---,23.18,VWS V14.01,2013-02-24 22:46:00,
2013-02-24 17:48:00,46.8,6.7,27.08,East,90,3.8,3.8,19,0.00,,---,23.18,VWS V14.01,2013-02-24 22:48:00,
2013-02-24 17:50:00,46.6,6.5,27.08,ESE,112,1.3,1.3,19,0.00,,---,23.18,VWS V14.01,2013-02-24 22:50:00,
2013-02-24 17:52:00,46.4,6.4,27.08,ENE,68,2.0,2.9,19,0.00,,---,23.18,VWS V14.01,2013-02-24 22:52:00,
2013-02-24 17:54:00,46.4,6.4,27.08,SE,135,2.0,2.2,19,0.00,,---,23.18,VWS V14.01,2013-02-24 22:54:00,
2013-02-24 17:55:00,46.4,6.4,27.08,East,90,2.0,2.0,19,0.00,,---,23.18,VWS V14.01,2013-02-24 22:55:00,
2013-02-24 17:56:00,46.2,7.4,27.08,East,90,1.6,2.2,20,0.00,,---,23.18,VWS V14.01,2013-02-24 22:56:00,
2013-02-24 17:58:00,46.2,7.4,27.08,SSE,158,2.0,2.0,20,0.00,,---,23.18,VWS V14.01,2013-02-24 22:58:00,
2013-02-24 18:00:00,45.9,9.2,27.08,SSW,202,1.1,2.0,22,0.00,,---,23.18,VWS V14.01,2013-02-24 23:00:00,
2013-02-24 18:02:00,45.7,9.0,27.08,WSW,248,0.0,2.0,22,0.00,,---,23.18,VWS V14.01,2013-02-24 23:02:00,
2013-02-24 18:05:00,45.1,8.6,27.11,South,180,0.0,0.0,22,0.00,,---,23.18,VWS V14.01,2013-02-24 23:05:00,
2013-02-24 18:06:00,45.1,8.6,27.11,East,90,1.6,1.6,22,0.00,,---,23.18,VWS V14.01,2013-02-24 23:06:00,
2013-02-24 18:08:00,45.0,8.4,27.11,ESE,112,2.2,4.0,22,0.00,,---,23.18,VWS V14.01,2013-02-24 23:08:00,
2013-02-24 18:10:00,44.8,8.3,27.11,NE,45,1.6,1.6,22,0.00,,---,23.18,VWS V14.01,2013-02-24 23:10:00,
2013-02-24 18:12:00,44.6,8.1,27.11,East,90,1.6,1.6,22,0.00,,---,23.18,VWS V14.01,2013-02-24 23:12:00,
2013-02-24 18:14:00,44.2,8.8,27.11,NNE,22,0.9,1.6,23,0.00,,---,23.18,VWS V14.01,2013-02-24 23:14:00,
2013-02-24 18:15:00,44.1,10.5,27.11,WSW,248,0.0,0.9,25,0.00,,---,23.18,VWS V14.01,2013-02-24 23:15:00,
2013-02-24 18:16:00,43.9,12.9,27.11,WSW,248,1.3,1.6,28,0.00,,---,23.18,VWS V14.01,2013-02-24 23:16:00,
2013-02-24 18:18:00,43.5,12.6,27.11,WNW,292,1.6,2.0,28,0.00,,---,23.18,VWS V14.01,2013-02-24 23:18:00,
2013-02-24 18:20:00,43.0,12.9,27.11,West,270,2.5,2.5,29,0.00,,---,23.18,VWS V14.01,2013-02-24 23:20:00,
2013-02-24 18:22:00,42.6,13.4,27.11,WNW,292,1.1,2.9,30,0.00,,---,23.18,VWS V14.01,2013-02-24 23:22:00,
2013-02-24 18:24:00,42.1,13.6,27.11,WSW,248,2.7,2.7,31,0.00,,---,23.18,VWS V14.01,2013-02-24 23:24:00,
2013-02-24 18:25:00,42.1,15.1,27.11,WNW,292,2.0,2.7,33,0.00,,---,23.18,VWS V14.01,2013-02-24 23:25:00,
2013-02-24 18:26:00,42.1,15.1,27.11,WNW,292,2.0,2.7,33,0.00,,---,23.18,VWS V14.01,2013-02-24 23:26:00,
2013-02-24 18:28:00,41.4,15.1,27.11,WNW,292,1.6,2.7,34,0.00,,---,23.18,VWS V14.01,2013-02-24 23:28:00,
2013-02-24 18:30:00,41.0,14.8,27.11,WNW,292,1.6,2.2,34,0.00,,---,23.18,VWS V14.01,2013-02-24 23:30:00,
2013-02-24 18:32:00,41.0,14.8,27.11,WNW,292,1.3,1.6,34,0.00,,---,23.18,VWS V14.01,2013-02-24 23:32:00,
2013-02-24 18:34:00,40.6,14.5,27.11,WSW,248,1.6,1.6,34,0.00,,---,23.18,VWS V14.01,2013-02-24 23:34:00,
2013-02-24 18:35:00,40.6,15.8,27.11,WSW,248,1.1,1.6,36,0.00,,---,23.18,VWS V14.01,2013-02-24 23:35:00,
2013-02-24 18:36:00,40.6,16.4,27.11,West,270,1.6,1.6,37,0.00,,---,23.18,VWS V14.01,2013-02-24 23:36:00,
2013-02-24 18:38:00,40.3,17.3,27.11,West,270,3.1,3.1,39,0.00,,---,23.18,VWS V14.01,2013-02-24 23:38:00,
2013-02-24 18:40:00,40.1,17.7,27.11,West,270,2.2,3.1,40,0.00,,---,23.18,VWS V14.01,2013-02-24 23:40:00,
2013-02-24 18:42:00,39.9,17.6,27.11,WSW,248,2.2,2.2,40,0.00,,---,23.18,VWS V14.01,2013-02-24 23:42:00,
2013-02-24 18:44:00,39.4,17.7,27.11,West,270,2.0,2.2,41,0.00,,---,23.18,VWS V14.01,2013-02-24 23:44:00,
2013-02-24 18:45:00,39.4,17.7,27.11,WSW,248,1.3,2.0,41,0.00,,---,23.18,VWS V14.01,2013-02-24 23:45:00,
2013-02-24 18:46:00,39.4,17.7,27.11,WSW,248,2.5,2.5,41,0.00,,---,23.18,VWS V14.01,2013-02-24 23:46:00,
2013-02-24 18:48:00,39.0,17.3,27.14,WNW,292,1.6,2.5,41,0.00,,---,23.18,VWS V14.01,2013-02-24 23:48:00,
2013-02-24 18:50:00,38.7,17.0,27.14,West,270,2.5,2.5,41,0.00,,---,23.18,VWS V14.01,2013-02-24 23:50:00,
2013-02-24 18:52:00,38.7,17.6,27.14,WNW,292,2.7,2.9,42,0.00,,---,23.18,VWS V14.01,2013-02-24 23:52:00,
2013-02-24 18:54:00,38.1,16.5,27.14,WSW,248,3.1,3.1,41,0.00,,---,23.18,VWS V14.01,2013-02-24 23:54:00,
2013-02-24 18:55:00,38.3,16.7,27.14,WSW,248,2.7,3.1,41,0.00,,---,23.18,VWS V14.01,2013-02-24 23:55:00,
2013-02-24 18:56:00,38.5,16.8,27.14,NNW,338,1.6,3.1,41,0.00,,---,23.18,VWS V14.01,2013-02-24 23:56:00,
2013-02-24 18:58:00,38.3,16.7,27.14,WNW,292,2.0,2.0,41,0.00,,---,23.18,VWS V14.01,2013-02-24 23:58:00,
2013-02-24 19:00:00,37.9,16.4,27.14,WSW,248,2.5,2.7,41,0.00,,---,23.18,VWS V14.01,2013-02-25 00:00:00,
2013-02-24 19:02:00,37.8,16.8,27.14,West,270,2.9,3.1,42,0.00,,---,23.18,VWS V14.01,2013-02-25 00:02:00,
2013-02-24 19:04:00,35.4,16.7,27.14,WSW,248,2.5,2.5,46,0.00,,---,23.18,VWS V14.01,2013-02-25 00:04:00,
2013-02-24 19:05:00,37.8,16.2,27.14,WSW,248,2.5,3.4,41,0.00,,---,23.18,VWS V14.01,2013-02-25 00:05:00,
2013-02-24 19:06:00,37.8,16.2,27.14,WSW,248,2.5,3.4,41,0.00,,---,23.18,VWS V14.01,2013-02-25 00:06:00,
2013-02-24 19:08:00,37.8,16.2,27.14,WNW,292,2.0,2.5,41,0.00,,---,23.18,VWS V14.01,2013-02-25 00:08:00,
2013-02-24 19:09:00,37.6,16.6,27.14,WSW,248,2.2,2.2,42,0.00,,---,23.18,VWS V14.01,2013-02-25 00:09:00,
2013-02-24 19:10:00,37.6,16.6,27.14,WSW,248,2.5,2.5,42,0.00,,---,23.18,VWS V14.01,2013-02-25 00:10:00,
2013-02-24 19:12:00,37.6,16.6,27.14,West,270,2.5,2.5,42,0.00,,---,23.18,VWS V14.01,2013-02-25 00:12:00,
2013-02-24 19:14:00,37.6,16.6,27.14,WNW,292,2.2,2.2,42,0.00,,---,23.18,VWS V14.01,2013-02-25 00:14:00,
2013-02-24 19:16:00,37.6,16.6,27.14,WNW,292,2.2,2.2,42,0.00,,---,23.18,VWS V14.01,2013-02-25 00:16:00,
2013-02-24 19:18:00,37.6,16.6,27.14,West,270,4.0,4.0,42,0.00,,---,23.18,VWS V14.01,2013-02-25 00:18:00,
2013-02-24 19:19:00,37.6,16.6,27.14,SSW,202,1.6,4.0,42,0.00,,---,23.18,VWS V14.01,2013-02-25 00:19:00,
2013-02-24 19:20:00,37.6,16.6,27.14,SSW,202,1.6,4.0,42,0.00,,---,23.18,VWS V14.01,2013-02-25 00:20:00,
2013-02-24 19:22:00,37.6,16.6,27.14,WNW,292,1.3,2.2,42,0.00,,---,23.18,VWS V14.01,2013-02-25 00:22:00,
2013-02-24 19:24:00,37.6,17.1,27.14,WNW,292,1.6,2.7,43,0.00,,---,23.18,VWS V14.01,2013-02-25 00:24:00,
2013-02-24 19:26:00,37.4,16.4,27.14,West,270,2.9,2.9,42,0.00,,---,23.18,VWS V14.01,2013-02-25 00:26:00,
2013-02-24 19:28:00,37.2,16.8,27.14,WSW,248,2.9,3.6,43,0.00,,---,23.18,VWS V14.01,2013-02-25 00:28:00,
2013-02-24 19:29:00,37.0,16.1,27.14,NE,45,1.3,1.3,42,0.00,,---,23.18,VWS V14.01,2013-02-25 00:29:00,
2013-02-24 19:30:00,34.2,17.5,27.14,WSW,248,2.7,2.7,50,0.00,,---,23.18,VWS V14.01,2013-02-25 00:30:00,
2013-02-24 19:32:00,37.0,16.1,27.14,WSW,248,2.9,3.1,42,0.00,,---,23.18,VWS V14.01,2013-02-25 00:32:00,
2013-02-24 19:34:00,37.0,16.6,27.14,West,270,2.5,2.5,43,0.00,,---,23.18,VWS V14.01,2013-02-25 00:34:00,
2013-02-24 19:36:00,37.0,16.6,27.14,WNW,292,2.5,2.7,43,0.00,,---,23.18,VWS V14.01,2013-02-25 00:36:00,
2013-02-24 19:38:00,37.0,16.6,27.14,WNW,292,2.5,2.5,43,0.00,,---,23.18,VWS V14.01,2013-02-25 00:38:00,
2013-02-24 19:39:00,37.0,16.6,27.14,WSW,248,1.6,2.5,43,0.00,,---,23.18,VWS V14.01,2013-02-25 00:39:00,
2013-02-24 19:40:00,37.0,16.6,27.14,WSW,248,1.6,2.5,43,0.00,,---,23.18,VWS V14.01,2013-02-25 00:40:00,
2013-02-24 19:42:00,37.0,16.6,27.14,West,270,3.1,3.1,43,0.00,,---,23.18,VWS V14.01,2013-02-25 00:42:00,
2013-02-24 19:44:00,36.1,16.9,27.14,WNW,292,2.0,2.5,45,0.00,,---,23.18,VWS V14.01,2013-02-25 00:44:00,
2013-02-24 19:46:00,36.1,16.9,27.14,WNW,292,2.9,2.9,45,0.00,,---,23.18,VWS V14.01,2013-02-25 00:46:00,
2013-02-24 19:48:00,36.1,16.9,27.11,WNW,292,2.2,2.9,45,0.00,,---,23.18,VWS V14.01,2013-02-25 00:48:00,
2013-02-24 19:50:00,35.6,15.3,27.11,WNW,292,2.0,2.5,43,0.00,,---,23.18,VWS V14.01,2013-02-25 00:50:00,
2013-02-24 19:52:00,35.8,16.0,27.11,West,270,2.5,2.5,44,0.00,,---,23.18,VWS V14.01,2013-02-25 00:52:00,
2013-02-24 19:54:00,35.6,16.9,27.11,WNW,292,2.0,2.5,46,0.00,,---,23.18,VWS V14.01,2013-02-25 00:54:00,
2013-02-24 19:55:00,35.6,16.9,27.11,WSW,248,2.7,2.7,46,0.00,,---,23.18,VWS V14.01,2013-02-25 00:55:00,
2013-02-24 19:56:00,35.6,16.9,27.11,WSW,248,3.1,3.1,46,0.00,,---,23.18,VWS V14.01,2013-02-25 00:56:00,
2013-02-24 19:58:00,35.6,16.4,27.11,NW,315,2.5,3.1,45,0.00,,---,23.18,VWS V14.01,2013-02-25 00:58:00,
2013-02-24 20:00:00,35.6,16.4,27.11,West,270,2.7,2.7,45,0.00,,---,23.18,VWS V14.01,2013-02-25 01:00:00,
2013-02-24 20:02:00,35.4,16.7,27.11,WSW,248,1.3,2.7,46,0.00,,---,23.18,VWS V14.01,2013-02-25 01:02:00,
2013-02-24 20:04:00,35.4,16.7,27.14,WSW,248,2.5,2.5,46,0.00,,---,23.18,VWS V14.01,2013-02-25 01:04:00,
2013-02-24 20:05:00,35.4,16.7,27.14,WSW,248,3.4,3.4,46,0.00,,---,23.18,VWS V14.01,2013-02-25 01:05:00,
2013-02-24 20:06:00,35.4,16.7,27.14,WSW,248,3.8,3.8,46,0.00,,---,23.18,VWS V14.01,2013-02-25 01:06:00,
2013-02-24 20:08:00,35.1,15.9,27.14,NW,315,2.0,3.8,45,0.00,,---,23.18,VWS V14.01,2013-02-25 01:08:00,
2013-02-24 20:10:00,34.9,15.7,27.14,WNW,292,1.6,2.0,45,0.00,,---,23.18,VWS V14.01,2013-02-25 01:10:00,
2013-02-24 20:12:00,35.2,15.0,27.14,WSW,248,2.7,3.4,43,0.00,,---,23.18,VWS V14.01,2013-02-25 01:12:00,
2013-02-24 20:14:00,35.2,15.0,27.14,NNW,338,2.2,2.7,43,0.00,,---,23.18,VWS V14.01,2013-02-25 01:14:00,
2013-02-24 20:15:00,35.2,15.5,27.14,NW,315,1.3,2.2,44,0.00,,---,23.18,VWS V14.01,2013-02-25 01:15:00,
2013-02-24 20:16:00,35.1,15.9,27.14,WNW,292,2.5,2.5,45,0.00,,---,23.18,VWS V14.01,2013-02-25 01:16:00,
2013-02-24 20:18:00,35.1,16.9,27.14,WNW,292,2.5,2.7,47,0.00,,---,23.18,VWS V14.01,2013-02-25 01:18:00,
2013-02-24 20:20:00,34.9,16.2,27.14,WSW,248,2.0,2.5,46,0.00,,---,23.18,VWS V14.01,2013-02-25 01:20:00,
2013-02-24 20:22:00,34.7,17.0,27.14,WNW,292,2.0,3.4,48,0.00,,---,23.18,VWS V14.01,2013-02-25 01:22:00,
2013-02-24 20:24:00,34.5,16.9,27.14,WSW,248,2.7,2.7,48,0.00,,---,23.18,VWS V14.01,2013-02-25 01:24:00,
2013-02-24 20:25:00,34.5,16.9,27.14,WSW,248,2.5,2.7,48,0.00,,---,23.18,VWS V14.01,2013-02-25 01:25:00,
2013-02-24 20:26:00,34.5,16.9,27.14,WNW,292,1.3,2.7,48,0.00,,---,23.18,VWS V14.01,2013-02-25 01:26:00,
2013-02-24 20:28:00,34.3,17.2,27.14,West,270,2.5,2.5,49,0.00,,---,23.18,VWS V14.01,2013-02-25 01:28:00,
2013-02-24 20:30:00,34.3,17.2,27.14,WSW,248,2.7,2.7,49,0.00,,---,23.18,VWS V14.01,2013-02-25 01:30:00,
2013-02-24 20:32:00,34.3,17.6,27.14,West,270,2.2,3.1,50,0.00,,---,23.18,VWS V14.01,2013-02-25 01:32:00,
2013-02-24 20:34:00,34.2,17.9,27.14,WSW,248,2.2,2.2,51,0.00,,---,23.18,VWS V14.01,2013-02-25 01:34:00,
2013-02-24 20:35:00,34.0,17.8,27.14,NW,315,2.0,2.2,51,0.00,,---,23.18,VWS V14.01,2013-02-25 01:35:00,
2013-02-24 20:36:00,34.0,17.8,27.14,NW,315,2.2,2.7,51,0.00,,---,23.18,VWS V14.01,2013-02-25 01:36:00,
2013-02-24 20:38:00,33.8,17.6,27.14,WSW,248,2.7,2.7,51,0.00,,---,23.18,VWS V14.01,2013-02-25 01:38:00,
2013-02-24 20:40:00,33.6,17.9,27.14,WNW,292,1.6,3.1,52,0.00,,---,23.18,VWS V14.01,2013-02-25 01:40:00,
2013-02-24 20:42:00,33.6,17.9,27.14,West,270,2.9,2.9,52,0.00,,---,23.18,VWS V14.01,2013-02-25 01:42:00,
2013-02-24 20:44:00,33.6,17.4,27.14,West,270,2.5,2.9,51,0.00,,---,23.18,VWS V14.01,2013-02-25 01:44:00,
2013-02-24 20:45:00,33.6,17.4,27.14,WNW,292,2.2,2.7,51,0.00,,---,23.18,VWS V14.01,2013-02-25 01:45:00,
2013-02-24 20:46:00,33.6,17.4,27.14,West,270,2.5,2.7,51,0.00,,---,23.18,VWS V14.01,2013-02-25 01:46:00,
2013-02-24 20:48:00,33.6,17.9,27.14,WNW,292,2.5,3.4,52,0.00,,---,23.18,VWS V14.01,2013-02-25 01:48:00,
2013-02-24 20:50:00,33.4,17.7,27.14,WNW,292,1.6,2.5,52,0.00,,---,23.18,VWS V14.01,2013-02-25 01:50:00,
2013-02-24 20:52:00,33.3,17.5,27.14,WNW,292,2.0,2.5,52,0.00,,---,23.18,VWS V14.01,2013-02-25 01:52:00,
2013-02-24 20:54:00,33.1,17.4,27.14,NW,315,1.1,2.0,52,0.00,,---,23.18,VWS V14.01,2013-02-25 01:54:00,
2013-02-24 20:55:00,33.1,16.9,27.14,West,270,1.6,1.6,51,0.00,,---,23.18,VWS V14.01,2013-02-25 01:55:00,
2013-02-24 20:56:00,33.1,17.4,27.14,South,180,1.3,1.6,52,0.00,,---,23.18,VWS V14.01,2013-02-25 01:56:00,
2013-02-24 20:58:00,33.1,17.8,27.14,WSW,248,2.2,2.2,53,0.00,,---,23.18,VWS V14.01,2013-02-25 01:58:00,
2013-02-24 20:59:00,33.1,17.8,27.14,North,0,1.3,2.2,53,0.00,,---,23.18,VWS V14.01,2013-02-25 01:59:00,
2013-02-24 21:00:00,33.1,17.8,27.14,North,0,1.3,2.2,53,0.00,,---,23.18,VWS V14.01,2013-02-25 02:00:00,
2013-02-24 21:02:00,32.9,17.2,27.14,WNW,292,0.0,1.3,52,0.00,,---,23.18,VWS V14.01,2013-02-25 02:02:00,
2013-02-24 21:04:00,32.9,17.7,27.14,WNW,292,2.2,2.2,53,0.00,,---,23.18,VWS V14.01,2013-02-25 02:04:00,
2013-02-24 21:06:00,32.7,17.5,27.14,SW,225,1.3,2.2,53,0.00,,---,23.18,VWS V14.01,2013-02-25 02:06:00,
2013-02-24 21:08:00,32.7,17.9,27.14,WSW,248,1.3,1.3,54,0.00,,---,23.18,VWS V14.01,2013-02-25 02:08:00,
2013-02-24 21:09:00,32.5,17.8,27.14,WSW,248,1.3,1.3,54,0.00,,---,23.18,VWS V14.01,2013-02-25 02:09:00,
2013-02-24 21:10:00,32.5,17.8,27.14,WSW,248,1.1,1.3,54,0.00,,---,23.18,VWS V14.01,2013-02-25 02:10:00,
2013-02-24 21:12:00,32.5,17.8,27.14,WSW,248,1.3,1.3,54,0.00,,---,23.18,VWS V14.01,2013-02-25 02:12:00,
2013-02-24 21:14:00,32.4,17.6,27.14,WNW,292,1.6,2.0,54,0.00,,---,23.18,VWS V14.01,2013-02-25 02:14:00,
2013-02-24 21:16:00,32.2,17.4,27.14,WNW,292,0.9,2.0,54,0.00,,---,23.18,VWS V14.01,2013-02-25 02:16:00,
2013-02-24 21:18:00,32.0,17.7,27.17,WNW,292,2.0,2.0,55,0.00,,---,23.18,VWS V14.01,2013-02-25 02:18:00,
2013-02-24 21:19:00,31.8,17.5,27.17,West,270,1.6,2.0,55,0.00,,---,23.18,VWS V14.01,2013-02-25 02:19:00,
2013-02-24 21:20:00,31.8,17.5,27.17,West,270,1.6,2.0,55,0.00,,---,23.18,VWS V14.01,2013-02-25 02:20:00,
2013-02-24 21:22:00,29.5,19.2,17.83,WNW,292,1.6,2.5,65,0.00,,---,23.18,VWS V14.01,2013-02-25 02:22:00,
2013-02-24 21:24:00,31.6,18.2,27.17,West,270,2.0,2.0,57,0.00,,---,23.18,VWS V14.01,2013-02-25 02:24:00,
2013-02-24 21:26:00,31.8,18.7,27.17,West,270,2.5,2.5,58,0.00,,---,23.18,VWS V14.01,2013-02-25 02:26:00,
2013-02-24 21:28:00,31.8,18.7,27.17,WNW,292,2.2,2.5,58,0.00,,---,23.18,VWS V14.01,2013-02-25 02:28:00,
2013-02-24 21:29:00,31.6,18.6,27.17,WNW,292,1.6,2.2,58,0.00,,---,23.18,VWS V14.01,2013-02-25 02:29:00,
2013-02-24 21:30:00,31.6,18.6,27.17,West,270,1.3,2.2,58,0.00,,---,23.18,VWS V14.01,2013-02-25 02:30:00,
2013-02-24 21:32:00,31.6,18.2,27.17,WSW,248,2.5,2.7,57,0.00,,---,23.18,VWS V14.01,2013-02-25 02:32:00,
2013-02-24 21:34:00,31.6,18.6,27.17,West,270,2.5,3.4,58,0.00,,---,23.18,VWS V14.01,2013-02-25 02:34:00,
2013-02-24 21:36:00,31.6,18.6,27.17,West,270,2.0,3.4,58,0.00,,---,23.18,VWS V14.01,2013-02-25 02:36:00,
2013-02-24 21:38:00,28.9,17.2,27.14,WNW,292,1.1,1.3,61,0.00,,---,23.18,VWS V14.01,2013-02-25 02:38:00,
2013-02-24 21:39:00,31.5,17.2,27.17,WNW,292,0.0,2.0,55,0.00,,---,23.18,VWS V14.01,2013-02-25 02:39:00,
2013-02-24 21:40:00,31.5,17.2,27.17,WNW,292,0.0,2.0,55,0.00,,---,23.18,VWS V14.01,2013-02-25 02:40:00,
2013-02-24 21:42:00,31.3,16.6,27.17,WNW,292,0.0,0.0,54,0.00,,---,23.18,VWS V14.01,2013-02-25 02:42:00,
2013-02-24 21:44:00,31.1,16.4,27.17,WNW,292,1.6,1.6,54,0.00,,---,23.18,VWS V14.01,2013-02-25 02:44:00,
2013-02-24 21:46:00,30.9,17.1,27.17,WNW,292,2.0,2.2,56,0.00,,---,23.18,VWS V14.01,2013-02-25 02:46:00,
2013-02-24 21:48:00,30.7,17.3,27.17,WNW,292,1.3,2.0,57,0.00,,---,23.18,VWS V14.01,2013-02-25 02:48:00,
2013-02-24 21:49:00,30.6,17.1,27.17,WSW,248,1.6,1.6,57,0.00,,---,23.18,VWS V14.01,2013-02-25 02:49:00,
2013-02-24 21:50:00,30.6,17.1,27.17,WSW,248,2.0,2.0,57,0.00,,---,23.18,VWS V14.01,2013-02-25 02:50:00,
2013-02-24 21:52:00,30.6,17.6,27.17,West,270,1.3,2.0,58,0.00,,---,23.18,VWS V14.01,2013-02-25 02:52:00,
2013-02-24 21:54:00,30.4,17.4,27.17,West,270,1.6,1.6,58,0.00,,---,23.18,VWS V14.01,2013-02-25 02:54:00,
2013-02-24 21:56:00,30.4,17.4,27.17,West,270,2.0,2.0,58,0.00,,---,23.18,VWS V14.01,2013-02-25 02:56:00,
2013-02-24 21:58:00,30.2,17.2,27.17,West,270,0.0,2.0,58,0.00,,---,23.18,VWS V14.01,2013-02-25 02:58:00,
2013-02-24 21:59:00,30.2,16.8,27.17,West,270,0.0,0.0,57,0.00,,---,23.18,VWS V14.01,2013-02-25 02:59:00,
2013-02-24 22:00:00,30.2,16.8,27.17,West,270,0.0,0.0,57,0.00,,---,23.18,VWS V14.01,2013-02-25 03:00:00,
2013-02-24 22:02:00,30.0,16.2,27.17,West,270,0.0,0.0,56,0.00,,---,23.18,VWS V14.01,2013-02-25 03:02:00,
2013-02-24 22:04:00,29.8,16.9,27.17,West,270,0.0,0.0,58,0.00,,---,23.18,VWS V14.01,2013-02-25 03:04:00,
2013-02-24 22:06:00,29.8,16.9,27.17,West,270,0.0,0.0,58,0.00,,---,23.18,VWS V14.01,2013-02-25 03:06:00,
2013-02-24 22:08:00,29.8,17.3,27.17,West,270,1.1,1.6,59,0.00,,---,23.18,VWS V14.01,2013-02-25 03:08:00,
2013-02-24 22:09:00,29.7,17.1,27.17,West,270,1.3,1.6,59,0.00,,---,23.18,VWS V14.01,2013-02-25 03:09:00,
2013-02-24 22:10:00,29.7,17.1,27.17,West,270,1.3,1.6,59,0.00,,---,23.18,VWS V14.01,2013-02-25 03:10:00,
2013-02-24 22:12:00,29.5,17.3,27.17,WNW,292,1.6,1.6,60,0.00,,---,23.18,VWS V14.01,2013-02-25 03:12:00,
2013-02-24 22:14:00,29.5,17.7,27.17,WNW,292,1.6,2.0,61,0.00,,---,23.18,VWS V14.01,2013-02-25 03:14:00,
2013-02-24 22:16:00,29.5,18.1,27.17,WNW,292,1.3,2.0,62,0.00,,---,23.18,VWS V14.01,2013-02-25 03:16:00,
2013-02-24 22:18:00,29.5,18.5,27.17,WNW,292,1.3,1.3,63,0.00,,---,23.18,VWS V14.01,2013-02-25 03:18:00,
2013-02-24 22:19:00,29.5,18.8,27.14,West,270,2.0,2.2,64,0.00,,---,23.18,VWS V14.01,2013-02-25 03:19:00,
2013-02-24 22:20:00,29.5,18.8,27.14,West,270,2.0,2.2,64,0.00,,---,23.18,VWS V14.01,2013-02-25 03:20:00,
2013-02-24 22:22:00,29.5,19.2,17.83,WNW,292,1.6,2.5,65,0.00,,---,23.18,VWS V14.01,2013-02-25 03:22:00,
2013-02-24 22:24:00,29.3,18.3,27.14,WNW,292,0.9,0.9,63,0.00,,---,23.18,VWS V14.01,2013-02-25 03:24:00,
2013-02-24 22:26:00,29.3,17.5,27.14,WNW,292,0.0,0.9,61,0.00,,---,23.18,VWS V14.01,2013-02-25 03:26:00,
2013-02-24 22:28:00,29.3,17.1,27.14,WNW,292,0.0,0.0,60,0.00,,---,23.18,VWS V14.01,2013-02-25 03:28:00,
2013-02-24 22:29:00,29.3,17.1,27.14,West,270,1.1,1.1,60,0.00,,---,23.18,VWS V14.01,2013-02-25 03:29:00,
2013-02-24 22:30:00,29.3,17.1,27.14,West,270,1.1,1.1,60,0.00,,---,23.18,VWS V14.01,2013-02-25 03:30:00,
2013-02-24 22:32:00,29.3,17.1,27.14,West,270,1.6,1.6,60,0.00,,---,23.18,VWS V14.01,2013-02-25 03:32:00,
2013-02-24 22:34:00,29.1,17.4,27.14,WNW,292,1.1,1.6,61,0.00,,---,23.18,VWS V14.01,2013-02-25 03:34:00,
2013-02-24 22:36:00,28.9,17.2,27.14,WNW,292,0.9,1.6,61,0.00,,---,23.18,VWS V14.01,2013-02-25 03:36:00,
2013-02-24 22:38:00,28.9,17.2,27.14,WNW,292,1.1,1.3,61,0.00,,---,23.18,VWS V14.01,2013-02-25 03:38:00,
2013-02-24 22:39:00,28.9,17.6,27.14,WNW,292,1.6,1.6,62,0.00,,---,23.18,VWS V14.01,2013-02-25 03:39:00,
2013-02-24 22:40:00,28.9,17.6,27.14,WNW,292,1.3,1.6,62,0.00,,---,23.18,VWS V14.01,2013-02-25 03:40:00,
2013-02-24 22:42:00,28.9,17.6,27.14,WNW,292,1.1,1.6,62,0.00,,---,23.18,VWS V14.01,2013-02-25 03:42:00,
2013-02-24 22:44:00,28.9,17.9,27.14,West,270,2.0,2.0,63,0.00,,---,23.18,VWS V14.01,2013-02-25 03:44:00,
2013-02-24 22:46:00,28.9,18.7,27.14,West,270,2.5,2.5,65,0.00,,---,23.18,VWS V14.01,2013-02-25 03:46:00,
2013-02-24 22:48:00,28.9,19.4,27.14,West,270,2.2,2.5,67,0.00,,---,23.18,VWS V14.01,2013-02-25 03:48:00,
2013-02-24 22:49:00,28.9,19.4,27.14,WNW,292,1.3,2.2,67,0.00,,---,23.18,VWS V14.01,2013-02-25 03:49:00,
2013-02-24 22:50:00,28.9,19.4,27.14,WNW,292,1.3,2.2,67,0.00,,---,23.18,VWS V14.01,2013-02-25 03:50:00,
2013-02-24 22:52:00,28.9,19.0,27.14,West,270,1.6,1.6,66,0.00,,---,23.18,VWS V14.01,2013-02-25 03:52:00,
2013-02-24 22:54:00,28.8,18.1,27.14,West,270,1.1,1.1,64,0.00,,---,23.18,VWS V14.01,2013-02-25 03:54:00,
2013-02-24 22:56:00,28.8,17.8,27.14,WNW,292,1.3,2.0,63,0.00,,---,23.18,VWS V14.01,2013-02-25 03:56:00,
2013-02-24 22:58:00,28.8,17.8,27.14,WNW,292,1.3,1.6,63,0.00,,---,23.18,VWS V14.01,2013-02-25 03:58:00,
2013-02-24 22:59:00,28.6,18.0,27.14,WNW,292,1.3,1.3,64,0.00,,---,23.18,VWS V14.01,2013-02-25 03:59:00,
2013-02-24 23:00:00,28.6,18.0,27.14,WNW,292,1.6,1.6,64,0.00,,---,23.18,VWS V14.01,2013-02-25 04:00:00,
2013-02-24 23:02:00,28.6,18.3,27.14,WNW,292,1.6,1.6,65,0.00,,---,23.18,VWS V14.01,2013-02-25 04:02:00,
2013-02-24 23:04:00,28.6,18.0,27.14,WNW,292,0.0,1.6,64,0.00,,---,23.18,VWS V14.01,2013-02-25 04:04:00,
2013-02-24 23:06:00,28.6,18.0,27.14,WNW,292,0.0,1.6,64,0.00,,---,23.18,VWS V14.01,2013-02-25 04:06:00,
2013-02-24 23:08:00,28.6,17.2,27.14,WNW,292,1.3,1.6,62,0.00,,---,23.18,VWS V14.01,2013-02-25 04:08:00,
2013-02-24 23:09:00,28.4,17.8,27.14,WNW,292,2.2,2.2,64,0.00,,---,23.18,VWS V14.01,2013-02-25 04:09:00,
2013-02-24 23:10:00,28.4,17.8,27.14,WNW,292,1.6,2.2,64,0.00,,---,23.18,VWS V14.01,2013-02-25 04:10:00,
2013-02-24 23:12:00,27.0,18.2,27.14,WNW,292,0.0,0.0,69,0.00,,---,0.00,VWS V14.01,2013-02-25 04:12:00,
2013-02-24 23:14:00,28.2,18.0,27.14,WNW,292,1.1,1.1,65,0.00,,---,23.18,VWS V14.01,2013-02-25 04:14:00,
2013-02-24 23:16:00,28.2,18.0,27.14,WNW,292,1.1,1.3,65,0.00,,---,23.18,VWS V14.01,2013-02-25 04:16:00,
2013-02-24 23:18:00,28.2,18.3,27.14,WNW,292,1.3,1.3,66,0.00,,---,23.18,VWS V14.01,2013-02-25 04:18:00,
2013-02-24 23:19:00,28.2,18.7,27.14,WNW,292,1.3,1.3,67,0.00,,---,23.18,VWS V14.01,2013-02-25 04:19:00,
2013-02-24 23:20:00,28.2,18.7,27.14,WNW,292,1.3,1.3,67,0.00,,---,23.18,VWS V14.01,2013-02-25 04:20:00,
2013-02-24 23:22:00,28.2,18.3,27.14,West,270,0.9,1.3,66,0.00,,---,23.18,VWS V14.01,2013-02-25 04:22:00,
2013-02-24 23:24:00,28.2,18.3,27.14,West,270,0.0,0.0,66,0.00,,---,23.18,VWS V14.01,2013-02-25 04:24:00,
2013-02-24 23:26:00,28.0,17.8,27.14,North,0,0.0,0.0,65,0.00,,---,23.18,VWS V14.01,2013-02-25 04:26:00,
2013-02-24 23:28:00,28.0,17.1,27.14,NNE,22,0.0,0.0,63,0.00,,---,23.18,VWS V14.01,2013-02-25 04:28:00,
2013-02-24 23:29:00,28.0,16.7,27.14,NNE,22,0.0,0.0,62,0.00,,---,23.18,VWS V14.01,2013-02-25 04:29:00,
2013-02-24 23:30:00,28.0,16.7,27.14,NNE,22,0.0,0.0,62,0.00,,---,23.18,VWS V14.01,2013-02-25 04:30:00,
2013-02-24 23:32:00,27.9,16.5,27.14,NNE,22,0.0,0.0,62,0.00,,---,23.18,VWS V14.01,2013-02-25 04:32:00,
2013-02-24 23:34:00,27.9,16.2,27.14,NNE,22,0.0,0.0,61,0.00,,---,23.18,VWS V14.01,2013-02-25 04:34:00,
2013-02-24 23:36:00,27.9,16.2,27.14,NNE,22,0.0,0.0,61,0.00,,---,23.18,VWS V14.01,2013-02-25 04:36:00,
2013-02-24 23:38:00,27.7,15.6,27.14,NNE,22,0.0,0.0,60,0.00,,---,23.18,VWS V14.01,2013-02-25 04:38:00,
2013-02-24 23:39:00,27.7,15.6,27.14,NNE,22,0.0,0.0,60,0.00,,---,23.18,VWS V14.01,2013-02-25 04:39:00,
2013-02-24 23:40:00,27.5,15.4,27.14,NNE,22,0.0,0.0,60,0.00,,---,23.18,VWS V14.01,2013-02-25 04:40:00,
2013-02-24 23:42:00,27.5,15.4,27.14,NNE,22,0.0,0.0,60,0.00,,---,23.18,VWS V14.01,2013-02-25 04:42:00,
2013-02-24 23:44:00,27.3,15.7,27.14,NNE,22,0.0,0.0,61,0.00,,---,23.18,VWS V14.01,2013-02-25 04:44:00,
2013-02-24 23:46:00,27.3,15.7,27.14,NNW,338,0.0,0.0,61,0.00,,---,23.18,VWS V14.01,2013-02-25 04:46:00,
2013-02-24 23:48:00,27.5,17.3,27.14,WNW,292,0.0,0.0,65,0.00,,---,23.18,VWS V14.01,2013-02-25 04:48:00,
2013-02-24 23:49:00,27.5,18.7,27.14,SW,225,1.1,1.6,69,0.00,,---,23.18,VWS V14.01,2013-02-25 04:49:00,
2013-02-24 23:50:00,27.5,18.7,27.14,SW,225,1.1,1.6,69,0.00,,---,23.18,VWS V14.01,2013-02-25 04:50:00,
2013-02-24 23:52:00,27.5,19.4,27.14,WSW,248,1.3,1.6,71,0.00,,---,23.18,VWS V14.01,2013-02-25 04:52:00,
2013-02-24 23:54:00,27.3,19.2,27.14,West,270,0.9,1.1,71,0.00,,---,23.18,VWS V14.01,2013-02-25 04:54:00,
2013-02-24 23:56:00,27.3,18.8,27.14,WNW,292,1.1,1.1,70,0.00,,---,23.18,VWS V14.01,2013-02-25 04:56:00,
2013-02-24 23:58:00,27.3,18.8,27.14,WNW,292,1.6,1.6,70,0.00,,---,23.18,VWS V14.01,2013-02-25 04:58:00,
2013-02-24 23:59:00,27.3,18.8,27.14,WNW,292,1.3,1.6,70,0.00,,---,23.18,VWS V14.01,2013-02-25 04:59:00,